<?xml version="1.0" encoding="UTF-8" standalone="no" ?>
<gpx xmlns="http://www.topografix.com/GPX/1/1" xmlns:xsi="http://www.w3.org/2001/XMLSchema-instance" xsi:schemaLocation="http://www.topografix.com/GPX/1/1 http://www.topografix.com/GPX/1/1/gpx.xsd" version="1.1" creator="VisuGPX - https://www.visugpx.com">
  <metadata>
    <name>Tour de France 2019</name>
    <desc><![CDATA[4272km en 2 mois en tandem avec notre petit chien dans le panier avant]]></desc>
  </metadata>
  <trk>
    <name><![CDATA[Tracé 20191025-101338]]></name>
    <trkseg>
      <trkpt lat="43.41279" lon="4.73922">
        <ele>2.7</ele>
        <time>2019-10-25T08:16:05Z</time>
      </trkpt>
      <trkpt lat="43.41273" lon="4.74012">
        <ele>1.002</ele>
        <time>2019-10-25T08:16:35Z</time>
      </trkpt>
      <trkpt lat="43.41344" lon="4.73958">
        <ele>0.758</ele>
        <time>2019-10-25T08:17:05Z</time>
      </trkpt>
      <trkpt lat="43.41453" lon="4.73862">
        <ele>2.03</ele>
        <time>2019-10-25T08:17:38Z</time>
      </trkpt>
      <trkpt lat="43.41548" lon="4.73772">
        <ele>3.382</ele>
        <time>2019-10-25T08:18:08Z</time>
      </trkpt>
      <trkpt lat="43.41632" lon="4.73687">
        <ele>3.936</ele>
        <time>2019-10-25T08:18:38Z</time>
      </trkpt>
      <trkpt lat="43.41574" lon="4.73545">
        <ele>2.3</ele>
        <time>2019-10-25T08:19:08Z</time>
      </trkpt>
      <trkpt lat="43.41502" lon="4.73399">
        <ele>4.35</ele>
        <time>2019-10-25T08:19:38Z</time>
      </trkpt>
      <trkpt lat="43.41432" lon="4.73296">
        <ele>6.181</ele>
        <time>2019-10-25T08:20:08Z</time>
      </trkpt>
      <trkpt lat="43.41462" lon="4.73326">
        <ele>3.854</ele>
        <time>2019-10-25T08:27:20Z</time>
      </trkpt>
      <trkpt lat="43.4153" lon="4.73467">
        <ele>2.973</ele>
        <time>2019-10-25T08:27:50Z</time>
      </trkpt>
      <trkpt lat="43.41601" lon="4.73607">
        <ele>5.544</ele>
        <time>2019-10-25T08:28:20Z</time>
      </trkpt>
      <trkpt lat="43.41675" lon="4.73671">
        <ele>5.048</ele>
        <time>2019-10-25T08:28:50Z</time>
      </trkpt>
      <trkpt lat="43.41785" lon="4.73569">
        <ele>12.176</ele>
        <time>2019-10-25T08:29:20Z</time>
      </trkpt>
      <trkpt lat="43.41889" lon="4.73468">
        <ele>11.167</ele>
        <time>2019-10-25T08:29:50Z</time>
      </trkpt>
      <trkpt lat="43.41994" lon="4.73317">
        <ele>7.162</ele>
        <time>2019-10-25T08:30:23Z</time>
      </trkpt>
      <trkpt lat="43.4208" lon="4.73144">
        <ele>2</ele>
        <time>2019-10-25T08:30:53Z</time>
      </trkpt>
      <trkpt lat="43.42183" lon="4.72981">
        <ele>1</ele>
        <time>2019-10-25T08:31:23Z</time>
      </trkpt>
      <trkpt lat="43.42261" lon="4.72808">
        <ele>0.202</ele>
        <time>2019-10-25T08:31:53Z</time>
      </trkpt>
      <trkpt lat="43.42299" lon="4.72611">
        <ele>0.692</ele>
        <time>2019-10-25T08:32:23Z</time>
      </trkpt>
      <trkpt lat="43.42388" lon="4.72436">
        <ele>1.761</ele>
        <time>2019-10-25T08:32:56Z</time>
      </trkpt>
      <trkpt lat="43.42488" lon="4.72299">
        <ele>1.379</ele>
        <time>2019-10-25T08:33:26Z</time>
      </trkpt>
      <trkpt lat="43.4259" lon="4.72158">
        <ele>1.992</ele>
        <time>2019-10-25T08:33:56Z</time>
      </trkpt>
      <trkpt lat="43.4269" lon="4.72017">
        <ele>3.318</ele>
        <time>2019-10-25T08:34:26Z</time>
      </trkpt>
      <trkpt lat="43.42759" lon="4.71857">
        <ele>1</ele>
        <time>2019-10-25T08:34:56Z</time>
      </trkpt>
      <trkpt lat="43.4274" lon="4.71663">
        <ele>2.079</ele>
        <time>2019-10-25T08:35:26Z</time>
      </trkpt>
      <trkpt lat="43.42718" lon="4.7144">
        <ele>1.182</ele>
        <time>2019-10-25T08:35:59Z</time>
      </trkpt>
      <trkpt lat="43.42699" lon="4.71239">
        <ele>0.172</ele>
        <time>2019-10-25T08:36:29.001Z</time>
      </trkpt>
      <trkpt lat="43.4268" lon="4.71043">
        <ele>1.342</ele>
        <time>2019-10-25T08:36:59.001Z</time>
      </trkpt>
      <trkpt lat="43.42663" lon="4.7085">
        <ele>2.032</ele>
        <time>2019-10-25T08:37:29.001Z</time>
      </trkpt>
      <trkpt lat="43.42708" lon="4.7066">
        <ele>2.408</ele>
        <time>2019-10-25T08:37:59.001Z</time>
      </trkpt>
      <trkpt lat="43.42732" lon="4.70464">
        <ele>1.5</ele>
        <time>2019-10-25T08:38:29.001Z</time>
      </trkpt>
      <trkpt lat="43.42758" lon="4.70251">
        <ele>1.748</ele>
        <time>2019-10-25T08:39:02Z</time>
      </trkpt>
      <trkpt lat="43.42811" lon="4.70066">
        <ele>2.573</ele>
        <time>2019-10-25T08:39:32.001Z</time>
      </trkpt>
      <trkpt lat="43.4286" lon="4.69873">
        <ele>2.505</ele>
        <time>2019-10-25T08:40:02Z</time>
      </trkpt>
      <trkpt lat="43.42909" lon="4.69689">
        <ele>0.143</ele>
        <time>2019-10-25T08:40:32.001Z</time>
      </trkpt>
      <trkpt lat="43.42905" lon="4.69499">
        <ele>0.806</ele>
        <time>2019-10-25T08:41:02Z</time>
      </trkpt>
      <trkpt lat="43.4293" lon="4.69329">
        <ele>2.054</ele>
        <time>2019-10-25T08:41:32.001Z</time>
      </trkpt>
      <trkpt lat="43.43029" lon="4.6919">
        <ele>1.26</ele>
        <time>2019-10-25T08:42:05.001Z</time>
      </trkpt>
      <trkpt lat="43.43123" lon="4.69058">
        <ele>3.914</ele>
        <time>2019-10-25T08:42:35.001Z</time>
      </trkpt>
      <trkpt lat="43.4321" lon="4.68898">
        <ele>3.526</ele>
        <time>2019-10-25T08:43:05.001Z</time>
      </trkpt>
      <trkpt lat="43.43306" lon="4.68762">
        <ele>0.941</ele>
        <time>2019-10-25T08:43:35.001Z</time>
      </trkpt>
      <trkpt lat="43.43404" lon="4.68627">
        <ele>0.947</ele>
        <time>2019-10-25T08:44:05.001Z</time>
      </trkpt>
      <trkpt lat="43.43498" lon="4.68493">
        <ele>1.781</ele>
        <time>2019-10-25T08:44:35.001Z</time>
      </trkpt>
      <trkpt lat="43.43602" lon="4.68347">
        <ele>2.874</ele>
        <time>2019-10-25T08:45:08.001Z</time>
      </trkpt>
      <trkpt lat="43.43703" lon="4.68209">
        <ele>2.487</ele>
        <time>2019-10-25T08:45:38.001Z</time>
      </trkpt>
      <trkpt lat="43.43826" lon="4.68133">
        <ele>3.5</ele>
        <time>2019-10-25T08:46:08.001Z</time>
      </trkpt>
      <trkpt lat="43.43953" lon="4.6811">
        <ele>1.75</ele>
        <time>2019-10-25T08:46:38.001Z</time>
      </trkpt>
      <trkpt lat="43.44053" lon="4.6797">
        <ele>3.296</ele>
        <time>2019-10-25T08:47:08.001Z</time>
      </trkpt>
      <trkpt lat="43.44155" lon="4.67832">
        <ele>3.076</ele>
        <time>2019-10-25T08:47:38.001Z</time>
      </trkpt>
      <trkpt lat="43.44274" lon="4.67697">
        <ele>1.832</ele>
        <time>2019-10-25T08:48:11.001Z</time>
      </trkpt>
      <trkpt lat="43.44371" lon="4.67562">
        <ele>2.394</ele>
        <time>2019-10-25T08:48:41.001Z</time>
      </trkpt>
      <trkpt lat="43.44436" lon="4.67409">
        <ele>4.75</ele>
        <time>2019-10-25T08:49:11.001Z</time>
      </trkpt>
      <trkpt lat="43.44437" lon="4.67214">
        <ele>1.421</ele>
        <time>2019-10-25T08:49:41.001Z</time>
      </trkpt>
      <trkpt lat="43.44439" lon="4.67013">
        <ele>0.494</ele>
        <time>2019-10-25T08:50:11.001Z</time>
      </trkpt>
      <trkpt lat="43.44443" lon="4.668">
        <ele>1.391</ele>
        <time>2019-10-25T08:50:44.001Z</time>
      </trkpt>
      <trkpt lat="43.44518" lon="4.66625">
        <ele>0.366</ele>
        <time>2019-10-25T08:51:14.001Z</time>
      </trkpt>
      <trkpt lat="43.44606" lon="4.66452">
        <ele>1.027</ele>
        <time>2019-10-25T08:51:44.001Z</time>
      </trkpt>
      <trkpt lat="43.44692" lon="4.66283">
        <ele>1.5</ele>
        <time>2019-10-25T08:52:14.001Z</time>
      </trkpt>
      <trkpt lat="43.44786" lon="4.66155">
        <ele>7.134</ele>
        <time>2019-10-25T08:52:44.001Z</time>
      </trkpt>
      <trkpt lat="43.44921" lon="4.66061">
        <ele>6.357</ele>
        <time>2019-10-25T08:53:14.001Z</time>
      </trkpt>
      <trkpt lat="43.45073" lon="4.65978">
        <ele>5.801</ele>
        <time>2019-10-25T08:53:47.001Z</time>
      </trkpt>
      <trkpt lat="43.45219" lon="4.65937">
        <ele>2.195</ele>
        <time>2019-10-25T08:54:17.001Z</time>
      </trkpt>
      <trkpt lat="43.45359" lon="4.65905">
        <ele>1.9</ele>
        <time>2019-10-25T08:54:47.001Z</time>
      </trkpt>
      <trkpt lat="43.45501" lon="4.65872">
        <ele>0.48</ele>
        <time>2019-10-25T08:55:17.001Z</time>
      </trkpt>
      <trkpt lat="43.45621" lon="4.65807">
        <ele>2.221</ele>
        <time>2019-10-25T08:55:47.001Z</time>
      </trkpt>
      <trkpt lat="43.45569" lon="4.65631">
        <ele>3.015</ele>
        <time>2019-10-25T08:56:17.001Z</time>
      </trkpt>
      <trkpt lat="43.45517" lon="4.6543">
        <ele>1</ele>
        <time>2019-10-25T08:56:50.001Z</time>
      </trkpt>
      <trkpt lat="43.45443" lon="4.65244">
        <ele>2.413</ele>
        <time>2019-10-25T08:57:20.001Z</time>
      </trkpt>
      <trkpt lat="43.45367" lon="4.65069">
        <ele>0.813</ele>
        <time>2019-10-25T08:57:50.001Z</time>
      </trkpt>
      <trkpt lat="43.45275" lon="4.649">
        <ele>1.177</ele>
        <time>2019-10-25T08:58:20.001Z</time>
      </trkpt>
      <trkpt lat="43.45176" lon="4.6474">
        <ele>1.277</ele>
        <time>2019-10-25T08:58:50.001Z</time>
      </trkpt>
      <trkpt lat="43.45067" lon="4.64604">
        <ele>1.296</ele>
        <time>2019-10-25T08:59:20.001Z</time>
      </trkpt>
      <trkpt lat="43.44912" lon="4.64519">
        <ele>1.7</ele>
        <time>2019-10-25T08:59:53.001Z</time>
      </trkpt>
      <trkpt lat="43.44767" lon="4.64464">
        <ele>0.156</ele>
        <time>2019-10-25T09:00:23.001Z</time>
      </trkpt>
      <trkpt lat="43.44615" lon="4.64415">
        <ele>0.305</ele>
        <time>2019-10-25T09:00:53.001Z</time>
      </trkpt>
      <trkpt lat="43.44463" lon="4.64366">
        <ele>1.6</ele>
        <time>2019-10-25T09:01:23.001Z</time>
      </trkpt>
      <trkpt lat="43.44335" lon="4.64293">
        <ele>0.195</ele>
        <time>2019-10-25T09:01:53.001Z</time>
      </trkpt>
      <trkpt lat="43.44268" lon="4.64107">
        <ele>0.46</ele>
        <time>2019-10-25T09:02:23.001Z</time>
      </trkpt>
      <trkpt lat="43.44293" lon="4.63894">
        <ele>1.362</ele>
        <time>2019-10-25T09:02:56.001Z</time>
      </trkpt>
      <trkpt lat="43.44365" lon="4.63736">
        <ele>0.604</ele>
        <time>2019-10-25T09:03:26.001Z</time>
      </trkpt>
      <trkpt lat="43.44434" lon="4.63588">
        <ele>2.002</ele>
        <time>2019-10-25T09:03:56.001Z</time>
      </trkpt>
      <trkpt lat="43.44507" lon="4.63435">
        <ele>1.835</ele>
        <time>2019-10-25T09:04:26.001Z</time>
      </trkpt>
      <trkpt lat="43.4456" lon="4.6326">
        <ele>1.237</ele>
        <time>2019-10-25T09:04:56.001Z</time>
      </trkpt>
      <trkpt lat="43.44599" lon="4.63072">
        <ele>1.207</ele>
        <time>2019-10-25T09:05:26.001Z</time>
      </trkpt>
      <trkpt lat="43.4464" lon="4.62874">
        <ele>1.354</ele>
        <time>2019-10-25T09:05:59.001Z</time>
      </trkpt>
      <trkpt lat="43.44676" lon="4.62696">
        <ele>0.603</ele>
        <time>2019-10-25T09:06:29.001Z</time>
      </trkpt>
      <trkpt lat="43.44711" lon="4.6253">
        <ele>0.452</ele>
        <time>2019-10-25T09:06:59.001Z</time>
      </trkpt>
      <trkpt lat="43.44747" lon="4.62355">
        <ele>1.319</ele>
        <time>2019-10-25T09:07:29.001Z</time>
      </trkpt>
      <trkpt lat="43.44783" lon="4.62176">
        <ele>1.052</ele>
        <time>2019-10-25T09:07:59.001Z</time>
      </trkpt>
      <trkpt lat="43.44772" lon="4.62057">
        <ele>1.758</ele>
        <time>2019-10-25T09:16:41.001Z</time>
      </trkpt>
      <trkpt lat="43.44729" lon="4.61919">
        <ele>2.997</ele>
        <time>2019-10-25T09:17:11.001Z</time>
      </trkpt>
      <trkpt lat="43.44678" lon="4.61768">
        <ele>1.493</ele>
        <time>2019-10-25T09:17:41.001Z</time>
      </trkpt>
      <trkpt lat="43.44631" lon="4.61609">
        <ele>1.148</ele>
        <time>2019-10-25T09:18:11.001Z</time>
      </trkpt>
      <trkpt lat="43.44537" lon="4.61545">
        <ele>1.565</ele>
        <time>2019-10-25T09:18:41.001Z</time>
      </trkpt>
      <trkpt lat="43.44403" lon="4.6153">
        <ele>1.167</ele>
        <time>2019-10-25T09:19:11.001Z</time>
      </trkpt>
      <trkpt lat="43.44251" lon="4.61513">
        <ele>0.43</ele>
        <time>2019-10-25T09:19:44.001Z</time>
      </trkpt>
      <trkpt lat="43.44142" lon="4.61501">
        <ele>1</ele>
        <time>2019-10-25T09:20:14.001Z</time>
      </trkpt>
      <trkpt lat="43.44017" lon="4.61492">
        <ele>0.527</ele>
        <time>2019-10-25T09:20:44.001Z</time>
      </trkpt>
      <trkpt lat="43.43975" lon="4.61384">
        <ele>2.673</ele>
        <time>2019-10-25T09:21:14.001Z</time>
      </trkpt>
      <trkpt lat="43.4404" lon="4.61274">
        <ele>3.18</ele>
        <time>2019-10-25T09:21:44.001Z</time>
      </trkpt>
      <trkpt lat="43.44136" lon="4.612">
        <ele>2.767</ele>
        <time>2019-10-25T09:22:14.001Z</time>
      </trkpt>
      <trkpt lat="43.44234" lon="4.61104">
        <ele>3.855</ele>
        <time>2019-10-25T09:22:47.001Z</time>
      </trkpt>
      <trkpt lat="43.44305" lon="4.60987">
        <ele>4.528</ele>
        <time>2019-10-25T09:23:17.001Z</time>
      </trkpt>
      <trkpt lat="43.44363" lon="4.60857">
        <ele>3.902</ele>
        <time>2019-10-25T09:23:47.001Z</time>
      </trkpt>
      <trkpt lat="43.44426" lon="4.60719">
        <ele>3.123</ele>
        <time>2019-10-25T09:24:17.001Z</time>
      </trkpt>
      <trkpt lat="43.44485" lon="4.60583">
        <ele>2.249</ele>
        <time>2019-10-25T09:24:47.001Z</time>
      </trkpt>
      <trkpt lat="43.44549" lon="4.60444">
        <ele>3.418</ele>
        <time>2019-10-25T09:25:17.001Z</time>
      </trkpt>
      <trkpt lat="43.44617" lon="4.60292">
        <ele>4.202</ele>
        <time>2019-10-25T09:25:50.001Z</time>
      </trkpt>
      <trkpt lat="43.44677" lon="4.60158">
        <ele>5.014</ele>
        <time>2019-10-25T09:26:20.001Z</time>
      </trkpt>
      <trkpt lat="43.44733" lon="4.6003">
        <ele>2.927</ele>
        <time>2019-10-25T09:26:50.001Z</time>
      </trkpt>
      <trkpt lat="43.44792" lon="4.59899">
        <ele>3.081</ele>
        <time>2019-10-25T09:27:20.001Z</time>
      </trkpt>
      <trkpt lat="43.44837" lon="4.59797">
        <ele>3.009</ele>
        <time>2019-10-25T09:27:50.001Z</time>
      </trkpt>
      <trkpt lat="43.44873" lon="4.59724">
        <ele>2.038</ele>
        <time>2019-10-25T09:29:53.001Z</time>
      </trkpt>
      <trkpt lat="43.44932" lon="4.59592">
        <ele>2.057</ele>
        <time>2019-10-25T09:30:26.001Z</time>
      </trkpt>
      <trkpt lat="43.44984" lon="4.59468">
        <ele>5.077</ele>
        <time>2019-10-25T09:30:56.001Z</time>
      </trkpt>
      <trkpt lat="43.4504" lon="4.59349">
        <ele>3.797</ele>
        <time>2019-10-25T09:31:26.001Z</time>
      </trkpt>
      <trkpt lat="43.45093" lon="4.59231">
        <ele>3.857</ele>
        <time>2019-10-25T09:31:56.001Z</time>
      </trkpt>
      <trkpt lat="43.45146" lon="4.59112">
        <ele>2.847</ele>
        <time>2019-10-25T09:32:26.001Z</time>
      </trkpt>
      <trkpt lat="43.452" lon="4.58993">
        <ele>4.177</ele>
        <time>2019-10-25T09:32:56.001Z</time>
      </trkpt>
      <trkpt lat="43.45261" lon="4.58858">
        <ele>4.363</ele>
        <time>2019-10-25T09:33:29.001Z</time>
      </trkpt>
      <trkpt lat="43.45315" lon="4.58736">
        <ele>5.493</ele>
        <time>2019-10-25T09:33:59.001Z</time>
      </trkpt>
      <trkpt lat="43.45371" lon="4.58612">
        <ele>4.552</ele>
        <time>2019-10-25T09:34:29.001Z</time>
      </trkpt>
      <trkpt lat="43.45403" lon="4.58465">
        <ele>2.459</ele>
        <time>2019-10-25T09:34:59.001Z</time>
      </trkpt>
      <trkpt lat="43.45409" lon="4.58357">
        <ele>2.233</ele>
        <time>2019-10-25T09:35:29.001Z</time>
      </trkpt>
      <trkpt lat="43.45411" lon="4.58266">
        <ele>1.532</ele>
        <time>2019-10-25T09:37:17.001Z</time>
      </trkpt>
      <trkpt lat="43.45417" lon="4.58121">
        <ele>1.652</ele>
        <time>2019-10-25T09:37:47.001Z</time>
      </trkpt>
      <trkpt lat="43.45423" lon="4.5798">
        <ele>3.409</ele>
        <time>2019-10-25T09:38:17.001Z</time>
      </trkpt>
      <trkpt lat="43.4543" lon="4.5784">
        <ele>2.839</ele>
        <time>2019-10-25T09:38:47.001Z</time>
      </trkpt>
      <trkpt lat="43.45437" lon="4.57707">
        <ele>0.22</ele>
        <time>2019-10-25T09:39:17.001Z</time>
      </trkpt>
      <trkpt lat="43.45442" lon="4.57568">
        <ele>0.413</ele>
        <time>2019-10-25T09:39:47.001Z</time>
      </trkpt>
      <trkpt lat="43.45448" lon="4.57407">
        <ele>0.277</ele>
        <time>2019-10-25T09:40:20.001Z</time>
      </trkpt>
      <trkpt lat="43.45455" lon="4.57251">
        <ele>2.695</ele>
        <time>2019-10-25T09:40:50.001Z</time>
      </trkpt>
      <trkpt lat="43.45461" lon="4.57086">
        <ele>3.142</ele>
        <time>2019-10-25T09:41:20.001Z</time>
      </trkpt>
      <trkpt lat="43.45468" lon="4.56924">
        <ele>3.242</ele>
        <time>2019-10-25T09:41:50.001Z</time>
      </trkpt>
      <trkpt lat="43.45475" lon="4.56768">
        <ele>2.818</ele>
        <time>2019-10-25T09:42:20.001Z</time>
      </trkpt>
      <trkpt lat="43.45481" lon="4.56603">
        <ele>2.01</ele>
        <time>2019-10-25T09:42:50.001Z</time>
      </trkpt>
      <trkpt lat="43.4549" lon="4.56426">
        <ele>1.384</ele>
        <time>2019-10-25T09:43:23.001Z</time>
      </trkpt>
      <trkpt lat="43.45518" lon="4.56275">
        <ele>2.26</ele>
        <time>2019-10-25T09:43:53.001Z</time>
      </trkpt>
      <trkpt lat="43.45557" lon="4.56133">
        <ele>3.086</ele>
        <time>2019-10-25T09:44:23.001Z</time>
      </trkpt>
      <trkpt lat="43.45599" lon="4.55988">
        <ele>0.811</ele>
        <time>2019-10-25T09:44:53.001Z</time>
      </trkpt>
      <trkpt lat="43.45639" lon="4.55844">
        <ele>2.79</ele>
        <time>2019-10-25T09:45:23.001Z</time>
      </trkpt>
      <trkpt lat="43.45678" lon="4.55701">
        <ele>2.135</ele>
        <time>2019-10-25T09:45:53.001Z</time>
      </trkpt>
      <trkpt lat="43.45725" lon="4.5554">
        <ele>3.213</ele>
        <time>2019-10-25T09:46:26.001Z</time>
      </trkpt>
      <trkpt lat="43.45765" lon="4.55395">
        <ele>2.246</ele>
        <time>2019-10-25T09:46:56.001Z</time>
      </trkpt>
      <trkpt lat="43.45796" lon="4.55242">
        <ele>2.646</ele>
        <time>2019-10-25T09:47:26.001Z</time>
      </trkpt>
      <trkpt lat="43.45799" lon="4.55083">
        <ele>1.255</ele>
        <time>2019-10-25T09:47:56.001Z</time>
      </trkpt>
      <trkpt lat="43.45798" lon="4.54929">
        <ele>1.059</ele>
        <time>2019-10-25T09:48:26.001Z</time>
      </trkpt>
      <trkpt lat="43.45801" lon="4.54782">
        <ele>0.681</ele>
        <time>2019-10-25T09:48:56.001Z</time>
      </trkpt>
      <trkpt lat="43.45828" lon="4.54627">
        <ele>1.728</ele>
        <time>2019-10-25T09:49:29.001Z</time>
      </trkpt>
      <trkpt lat="43.45878" lon="4.545">
        <ele>2.192</ele>
        <time>2019-10-25T09:49:59.001Z</time>
      </trkpt>
      <trkpt lat="43.45945" lon="4.54381">
        <ele>0.754</ele>
        <time>2019-10-25T09:50:29.001Z</time>
      </trkpt>
      <trkpt lat="43.46012" lon="4.54261">
        <ele>3.41</ele>
        <time>2019-10-25T09:50:59.001Z</time>
      </trkpt>
      <trkpt lat="43.46084" lon="4.54136">
        <ele>1.988</ele>
        <time>2019-10-25T09:51:29.001Z</time>
      </trkpt>
      <trkpt lat="43.4615" lon="4.54018">
        <ele>2.516</ele>
        <time>2019-10-25T09:51:59.001Z</time>
      </trkpt>
      <trkpt lat="43.46224" lon="4.53886">
        <ele>2.707</ele>
        <time>2019-10-25T09:52:32.001Z</time>
      </trkpt>
      <trkpt lat="43.46273" lon="4.53756">
        <ele>1.492</ele>
        <time>2019-10-25T09:53:02Z</time>
      </trkpt>
      <trkpt lat="43.46313" lon="4.53615">
        <ele>2.146</ele>
        <time>2019-10-25T09:53:32.001Z</time>
      </trkpt>
      <trkpt lat="43.46355" lon="4.5347">
        <ele>1.277</ele>
        <time>2019-10-25T09:54:02Z</time>
      </trkpt>
      <trkpt lat="43.46396" lon="4.53331">
        <ele>1.712</ele>
        <time>2019-10-25T09:54:32.001Z</time>
      </trkpt>
      <trkpt lat="43.46428" lon="4.53166">
        <ele>2.074</ele>
        <time>2019-10-25T09:55:05.001Z</time>
      </trkpt>
      <trkpt lat="43.46439" lon="4.53015">
        <ele>3.291</ele>
        <time>2019-10-25T09:55:35.001Z</time>
      </trkpt>
      <trkpt lat="43.46447" lon="4.52869">
        <ele>3.348</ele>
        <time>2019-10-25T09:56:05.001Z</time>
      </trkpt>
      <trkpt lat="43.46456" lon="4.52719">
        <ele>1.959</ele>
        <time>2019-10-25T09:56:35.001Z</time>
      </trkpt>
      <trkpt lat="43.46466" lon="4.52566">
        <ele>0.554</ele>
        <time>2019-10-25T09:57:05.001Z</time>
      </trkpt>
      <trkpt lat="43.46475" lon="4.52409">
        <ele>0.31</ele>
        <time>2019-10-25T09:57:35.001Z</time>
      </trkpt>
      <trkpt lat="43.46486" lon="4.52242">
        <ele>1.24</ele>
        <time>2019-10-25T09:58:08.001Z</time>
      </trkpt>
      <trkpt lat="43.46488" lon="4.52091">
        <ele>0.664</ele>
        <time>2019-10-25T09:58:38.001Z</time>
      </trkpt>
      <trkpt lat="43.46465" lon="4.51937">
        <ele>1.25</ele>
        <time>2019-10-25T09:59:08.001Z</time>
      </trkpt>
      <trkpt lat="43.46415" lon="4.51798">
        <ele>1.02</ele>
        <time>2019-10-25T09:59:38.001Z</time>
      </trkpt>
      <trkpt lat="43.46361" lon="4.51658">
        <ele>3.036</ele>
        <time>2019-10-25T10:00:08.001Z</time>
      </trkpt>
      <trkpt lat="43.46306" lon="4.51514">
        <ele>4.338</ele>
        <time>2019-10-25T10:00:38.001Z</time>
      </trkpt>
      <trkpt lat="43.46238" lon="4.51344">
        <ele>2.065</ele>
        <time>2019-10-25T10:01:11.001Z</time>
      </trkpt>
      <trkpt lat="43.46202" lon="4.51184">
        <ele>1.805</ele>
        <time>2019-10-25T10:01:41.001Z</time>
      </trkpt>
      <trkpt lat="43.46184" lon="4.51026">
        <ele>0.71</ele>
        <time>2019-10-25T10:02:11.001Z</time>
      </trkpt>
      <trkpt lat="43.46164" lon="4.50867">
        <ele>1.799</ele>
        <time>2019-10-25T10:02:41.001Z</time>
      </trkpt>
      <trkpt lat="43.4615" lon="4.50764">
        <ele>2.136</ele>
        <time>2019-10-25T10:03:14.001Z</time>
      </trkpt>
      <trkpt lat="43.46148" lon="4.50733">
        <ele>2.413</ele>
        <time>2019-10-25T10:03:47.001Z</time>
      </trkpt>
      <trkpt lat="43.46136" lon="4.50643">
        <ele>1.774</ele>
        <time>2019-10-25T10:04:32.001Z</time>
      </trkpt>
      <trkpt lat="43.4613" lon="4.50601">
        <ele>3.26</ele>
        <time>2019-10-25T10:05:08.001Z</time>
      </trkpt>
      <trkpt lat="43.46115" lon="4.50453">
        <ele>1.977</ele>
        <time>2019-10-25T10:05:38.001Z</time>
      </trkpt>
      <trkpt lat="43.46102" lon="4.50285">
        <ele>1.651</ele>
        <time>2019-10-25T10:06:08.001Z</time>
      </trkpt>
      <trkpt lat="43.4612" lon="4.5012">
        <ele>0.515</ele>
        <time>2019-10-25T10:06:38.001Z</time>
      </trkpt>
      <trkpt lat="43.46158" lon="4.49952">
        <ele>1.634</ele>
        <time>2019-10-25T10:07:08.001Z</time>
      </trkpt>
      <trkpt lat="43.46118" lon="4.49759">
        <ele>2.487</ele>
        <time>2019-10-25T10:07:41.001Z</time>
      </trkpt>
      <trkpt lat="43.46003" lon="4.49638">
        <ele>2.606</ele>
        <time>2019-10-25T10:08:11.001Z</time>
      </trkpt>
      <trkpt lat="43.45965" lon="4.49588">
        <ele>3.208</ele>
        <time>2019-10-25T10:08:41.001Z</time>
      </trkpt>
      <trkpt lat="43.45966" lon="4.4954">
        <ele>0.972</ele>
        <time>2019-10-25T10:09:56.001Z</time>
      </trkpt>
      <trkpt lat="43.45969" lon="4.49478">
        <ele>2.202</ele>
        <time>2019-10-25T10:10:50.001Z</time>
      </trkpt>
      <trkpt lat="43.45955" lon="4.4934">
        <ele>3.297</ele>
        <time>2019-10-25T10:11:20.001Z</time>
      </trkpt>
      <trkpt lat="43.4596" lon="4.49176">
        <ele>3.836</ele>
        <time>2019-10-25T10:11:53.001Z</time>
      </trkpt>
      <trkpt lat="43.45991" lon="4.49025">
        <ele>2.063</ele>
        <time>2019-10-25T10:12:23.001Z</time>
      </trkpt>
      <trkpt lat="43.46025" lon="4.48881">
        <ele>0.848</ele>
        <time>2019-10-25T10:12:53.001Z</time>
      </trkpt>
      <trkpt lat="43.46063" lon="4.48729">
        <ele>2.062</ele>
        <time>2019-10-25T10:13:23.001Z</time>
      </trkpt>
      <trkpt lat="43.46104" lon="4.48571">
        <ele>1.791</ele>
        <time>2019-10-25T10:13:53.001Z</time>
      </trkpt>
      <trkpt lat="43.46149" lon="4.48391">
        <ele>1.881</ele>
        <time>2019-10-25T10:14:26.001Z</time>
      </trkpt>
      <trkpt lat="43.46188" lon="4.48242">
        <ele>3.074</ele>
        <time>2019-10-25T10:14:56.001Z</time>
      </trkpt>
      <trkpt lat="43.46227" lon="4.48085">
        <ele>1.458</ele>
        <time>2019-10-25T10:15:26.001Z</time>
      </trkpt>
      <trkpt lat="43.46267" lon="4.47921">
        <ele>1.3</ele>
        <time>2019-10-25T10:15:56.001Z</time>
      </trkpt>
      <trkpt lat="43.46309" lon="4.47754">
        <ele>1.293</ele>
        <time>2019-10-25T10:16:26.001Z</time>
      </trkpt>
      <trkpt lat="43.46351" lon="4.4759">
        <ele>1.625</ele>
        <time>2019-10-25T10:16:56.001Z</time>
      </trkpt>
      <trkpt lat="43.46397" lon="4.4741">
        <ele>0.75</ele>
        <time>2019-10-25T10:17:29.001Z</time>
      </trkpt>
      <trkpt lat="43.46437" lon="4.47247">
        <ele>2.441</ele>
        <time>2019-10-25T10:17:59.001Z</time>
      </trkpt>
      <trkpt lat="43.46474" lon="4.47075">
        <ele>0.979</ele>
        <time>2019-10-25T10:18:29.001Z</time>
      </trkpt>
      <trkpt lat="43.46481" lon="4.46897">
        <ele>0.85</ele>
        <time>2019-10-25T10:18:59.001Z</time>
      </trkpt>
      <trkpt lat="43.46445" lon="4.46721">
        <ele>2</ele>
        <time>2019-10-25T10:19:29.001Z</time>
      </trkpt>
      <trkpt lat="43.46373" lon="4.46561">
        <ele>1.111</ele>
        <time>2019-10-25T10:19:59.001Z</time>
      </trkpt>
      <trkpt lat="43.46322" lon="4.46475">
        <ele>1.47</ele>
        <time>2019-10-25T10:26:41.001Z</time>
      </trkpt>
      <trkpt lat="43.46255" lon="4.46354">
        <ele>0.742</ele>
        <time>2019-10-25T10:27:11.001Z</time>
      </trkpt>
      <trkpt lat="43.46176" lon="4.46216">
        <ele>1.2</ele>
        <time>2019-10-25T10:27:41.001Z</time>
      </trkpt>
      <trkpt lat="43.46107" lon="4.46094">
        <ele>1.3</ele>
        <time>2019-10-25T10:28:11.001Z</time>
      </trkpt>
      <trkpt lat="43.46085" lon="4.46059">
        <ele>1.739</ele>
        <time>2019-10-25T10:28:56.001Z</time>
      </trkpt>
      <trkpt lat="43.4602" lon="4.45938">
        <ele>0.912</ele>
        <time>2019-10-25T10:29:26.001Z</time>
      </trkpt>
      <trkpt lat="43.45956" lon="4.45787">
        <ele>2.679</ele>
        <time>2019-10-25T10:29:59.001Z</time>
      </trkpt>
      <trkpt lat="43.45931" lon="4.45684">
        <ele>2.101</ele>
        <time>2019-10-25T10:30:35.001Z</time>
      </trkpt>
      <trkpt lat="43.45899" lon="4.45539">
        <ele>2.698</ele>
        <time>2019-10-25T10:31:05.001Z</time>
      </trkpt>
      <trkpt lat="43.45863" lon="4.45379">
        <ele>1.817</ele>
        <time>2019-10-25T10:31:35.001Z</time>
      </trkpt>
      <trkpt lat="43.45825" lon="4.45215">
        <ele>2.198</ele>
        <time>2019-10-25T10:32:05.001Z</time>
      </trkpt>
      <trkpt lat="43.45786" lon="4.45052">
        <ele>1.568</ele>
        <time>2019-10-25T10:32:35.001Z</time>
      </trkpt>
      <trkpt lat="43.4575" lon="4.44888">
        <ele>1.061</ele>
        <time>2019-10-25T10:33:08.001Z</time>
      </trkpt>
      <trkpt lat="43.45718" lon="4.44742">
        <ele>0.615</ele>
        <time>2019-10-25T10:33:38.001Z</time>
      </trkpt>
      <trkpt lat="43.4568" lon="4.44586">
        <ele>1.858</ele>
        <time>2019-10-25T10:34:08.001Z</time>
      </trkpt>
      <trkpt lat="43.45647" lon="4.44422">
        <ele>2.098</ele>
        <time>2019-10-25T10:34:38.001Z</time>
      </trkpt>
      <trkpt lat="43.45609" lon="4.44264">
        <ele>4.245</ele>
        <time>2019-10-25T10:35:08.002Z</time>
      </trkpt>
      <trkpt lat="43.45546" lon="4.4412">
        <ele>2.506</ele>
        <time>2019-10-25T10:35:38.001Z</time>
      </trkpt>
      <trkpt lat="43.45484" lon="4.43964">
        <ele>1.507</ele>
        <time>2019-10-25T10:36:11.001Z</time>
      </trkpt>
      <trkpt lat="43.45421" lon="4.43796">
        <ele>1.472</ele>
        <time>2019-10-25T10:36:41.001Z</time>
      </trkpt>
      <trkpt lat="43.45364" lon="4.43658">
        <ele>1.6</ele>
        <time>2019-10-25T10:37:11.001Z</time>
      </trkpt>
      <trkpt lat="43.45356" lon="4.43496">
        <ele>1.179</ele>
        <time>2019-10-25T10:37:41.001Z</time>
      </trkpt>
      <trkpt lat="43.45338" lon="4.43369">
        <ele>0.02</ele>
        <time>2019-10-25T10:38:11.001Z</time>
      </trkpt>
      <trkpt lat="43.45204" lon="4.43305">
        <ele>2.412</ele>
        <time>2019-10-25T10:38:44.001Z</time>
      </trkpt>
      <trkpt lat="43.45118" lon="4.43131">
        <ele>1.144</ele>
        <time>2019-10-25T10:39:14.001Z</time>
      </trkpt>
      <trkpt lat="43.4504" lon="4.42976">
        <ele>1.362</ele>
        <time>2019-10-25T10:39:44.001Z</time>
      </trkpt>
      <trkpt lat="43.45033" lon="4.42781">
        <ele>4.975</ele>
        <time>2019-10-25T10:40:14.001Z</time>
      </trkpt>
      <trkpt lat="43.45027" lon="4.42569">
        <ele>1.457</ele>
        <time>2019-10-25T10:40:44.001Z</time>
      </trkpt>
      <trkpt lat="43.45005" lon="4.42351">
        <ele>1.1</ele>
        <time>2019-10-25T10:41:14.001Z</time>
      </trkpt>
      <trkpt lat="43.44953" lon="4.4213">
        <ele>0.03</ele>
        <time>2019-10-25T10:41:47.001Z</time>
      </trkpt>
      <trkpt lat="43.44971" lon="4.41924">
        <ele>1.8</ele>
        <time>2019-10-25T10:42:17.001Z</time>
      </trkpt>
      <trkpt lat="43.44991" lon="4.41718">
        <ele>2.6</ele>
        <time>2019-10-25T10:42:47.001Z</time>
      </trkpt>
      <trkpt lat="43.45044" lon="4.4156">
        <ele>1.26</ele>
        <time>2019-10-25T10:43:17.001Z</time>
      </trkpt>
      <trkpt lat="43.45047" lon="4.41411">
        <ele>0.021</ele>
        <time>2019-10-25T10:43:47.001Z</time>
      </trkpt>
      <trkpt lat="43.45048" lon="4.4123">
        <ele>0.625</ele>
        <time>2019-10-25T10:44:17.001Z</time>
      </trkpt>
      <trkpt lat="43.45023" lon="4.4104">
        <ele>1</ele>
        <time>2019-10-25T10:44:50.001Z</time>
      </trkpt>
      <trkpt lat="43.45018" lon="4.40934">
        <ele>1</ele>
        <time>2019-10-25T10:45:20.001Z</time>
      </trkpt>
      <trkpt lat="43.45039" lon="4.40841">
        <ele>1.6</ele>
        <time>2019-10-25T10:45:50.001Z</time>
      </trkpt>
      <trkpt lat="43.45047" lon="4.40658">
        <ele>1.2</ele>
        <time>2019-10-25T10:46:20.001Z</time>
      </trkpt>
      <trkpt lat="43.45092" lon="4.40479">
        <ele>1.012</ele>
        <time>2019-10-25T10:46:50.001Z</time>
      </trkpt>
      <trkpt lat="43.45162" lon="4.40326">
        <ele>2.19</ele>
        <time>2019-10-25T10:47:20.001Z</time>
      </trkpt>
      <trkpt lat="43.45248" lon="4.40171">
        <ele>2.62</ele>
        <time>2019-10-25T10:47:53.001Z</time>
      </trkpt>
      <trkpt lat="43.45338" lon="4.40049">
        <ele>0.145</ele>
        <time>2019-10-25T10:48:23.001Z</time>
      </trkpt>
      <trkpt lat="43.45448" lon="4.39963">
        <ele>0.292</ele>
        <time>2019-10-25T10:48:53.001Z</time>
      </trkpt>
      <trkpt lat="43.4555" lon="4.39892">
        <ele>0.165</ele>
        <time>2019-10-25T10:49:23.001Z</time>
      </trkpt>
      <trkpt lat="43.45643" lon="4.39833">
        <ele>3.106</ele>
        <time>2019-10-25T10:49:53.001Z</time>
      </trkpt>
      <trkpt lat="43.45739" lon="4.39772">
        <ele>4.959</ele>
        <time>2019-10-25T10:50:23.001Z</time>
      </trkpt>
      <trkpt lat="43.45855" lon="4.39729">
        <ele>3.41</ele>
        <time>2019-10-25T10:50:56.001Z</time>
      </trkpt>
      <trkpt lat="43.45968" lon="4.39712">
        <ele>1.339</ele>
        <time>2019-10-25T10:51:26.001Z</time>
      </trkpt>
      <trkpt lat="43.46095" lon="4.3968">
        <ele>1</ele>
        <time>2019-10-25T10:51:56.001Z</time>
      </trkpt>
      <trkpt lat="43.46227" lon="4.3965">
        <ele>1</ele>
        <time>2019-10-25T10:52:26.001Z</time>
      </trkpt>
      <trkpt lat="43.46356" lon="4.39619">
        <ele>1.522</ele>
        <time>2019-10-25T10:52:56.001Z</time>
      </trkpt>
      <trkpt lat="43.4648" lon="4.3959">
        <ele>2.34</ele>
        <time>2019-10-25T10:53:26.001Z</time>
      </trkpt>
      <trkpt lat="43.46617" lon="4.39557">
        <ele>1.822</ele>
        <time>2019-10-25T10:53:59.001Z</time>
      </trkpt>
      <trkpt lat="43.46741" lon="4.3953">
        <ele>1.596</ele>
        <time>2019-10-25T10:54:29.001Z</time>
      </trkpt>
      <trkpt lat="43.46865" lon="4.39519">
        <ele>2.167</ele>
        <time>2019-10-25T10:54:59.001Z</time>
      </trkpt>
      <trkpt lat="43.4699" lon="4.39519">
        <ele>1.801</ele>
        <time>2019-10-25T10:55:29.001Z</time>
      </trkpt>
      <trkpt lat="43.4711" lon="4.39487">
        <ele>2.428</ele>
        <time>2019-10-25T10:55:59.001Z</time>
      </trkpt>
      <trkpt lat="43.47252" lon="4.39423">
        <ele>3.883</ele>
        <time>2019-10-25T10:56:32.001Z</time>
      </trkpt>
      <trkpt lat="43.47375" lon="4.39367">
        <ele>6.892</ele>
        <time>2019-10-25T10:57:02Z</time>
      </trkpt>
      <trkpt lat="43.47504" lon="4.39305">
        <ele>2.69</ele>
        <time>2019-10-25T10:57:32.001Z</time>
      </trkpt>
      <trkpt lat="43.47628" lon="4.3921">
        <ele>3.802</ele>
        <time>2019-10-25T10:58:02Z</time>
      </trkpt>
      <trkpt lat="43.47742" lon="4.39118">
        <ele>4.786</ele>
        <time>2019-10-25T10:58:32.001Z</time>
      </trkpt>
      <trkpt lat="43.47851" lon="4.39029">
        <ele>4.005</ele>
        <time>2019-10-25T10:59:02Z</time>
      </trkpt>
      <trkpt lat="43.47985" lon="4.38956">
        <ele>3.35</ele>
        <time>2019-10-25T10:59:35.001Z</time>
      </trkpt>
      <trkpt lat="43.48113" lon="4.38922">
        <ele>3.667</ele>
        <time>2019-10-25T11:00:05.001Z</time>
      </trkpt>
      <trkpt lat="43.48236" lon="4.38886">
        <ele>2.953</ele>
        <time>2019-10-25T11:00:35.001Z</time>
      </trkpt>
      <trkpt lat="43.48346" lon="4.38816">
        <ele>2.599</ele>
        <time>2019-10-25T11:01:05.001Z</time>
      </trkpt>
      <trkpt lat="43.48439" lon="4.3868">
        <ele>1.677</ele>
        <time>2019-10-25T11:01:35.001Z</time>
      </trkpt>
      <trkpt lat="43.4855" lon="4.38622">
        <ele>3.734</ele>
        <time>2019-10-25T11:02:05.001Z</time>
      </trkpt>
      <trkpt lat="43.48666" lon="4.38616">
        <ele>2.192</ele>
        <time>2019-10-25T11:02:38.001Z</time>
      </trkpt>
      <trkpt lat="43.48732" lon="4.38633">
        <ele>2.523</ele>
        <time>2019-10-25T11:11:08.001Z</time>
      </trkpt>
      <trkpt lat="43.48822" lon="4.38691">
        <ele>1</ele>
        <time>2019-10-25T11:11:38.001Z</time>
      </trkpt>
      <trkpt lat="43.48912" lon="4.38777">
        <ele>1.475</ele>
        <time>2019-10-25T11:12:08.001Z</time>
      </trkpt>
      <trkpt lat="43.49011" lon="4.38837">
        <ele>1.1</ele>
        <time>2019-10-25T11:12:38.001Z</time>
      </trkpt>
      <trkpt lat="43.49132" lon="4.38833">
        <ele>0.555</ele>
        <time>2019-10-25T11:13:08.001Z</time>
      </trkpt>
      <trkpt lat="43.49262" lon="4.3879">
        <ele>1.664</ele>
        <time>2019-10-25T11:13:41.001Z</time>
      </trkpt>
      <trkpt lat="43.49374" lon="4.38751">
        <ele>3.263</ele>
        <time>2019-10-25T11:14:11.001Z</time>
      </trkpt>
      <trkpt lat="43.49482" lon="4.38675">
        <ele>2.11</ele>
        <time>2019-10-25T11:14:41.001Z</time>
      </trkpt>
      <trkpt lat="43.49583" lon="4.3857">
        <ele>0.748</ele>
        <time>2019-10-25T11:15:11.001Z</time>
      </trkpt>
      <trkpt lat="43.49676" lon="4.38439">
        <ele>2</ele>
        <time>2019-10-25T11:15:41.001Z</time>
      </trkpt>
      <trkpt lat="43.49781" lon="4.38315">
        <ele>1.3</ele>
        <time>2019-10-25T11:16:11.001Z</time>
      </trkpt>
      <trkpt lat="43.49886" lon="4.38201">
        <ele>1</ele>
        <time>2019-10-25T11:16:44.001Z</time>
      </trkpt>
      <trkpt lat="43.49989" lon="4.38102">
        <ele>1</ele>
        <time>2019-10-25T11:17:14.001Z</time>
      </trkpt>
      <trkpt lat="43.50104" lon="4.38032">
        <ele>1</ele>
        <time>2019-10-25T11:17:44.001Z</time>
      </trkpt>
      <trkpt lat="43.5022" lon="4.37958">
        <ele>0.44</ele>
        <time>2019-10-25T11:18:14.001Z</time>
      </trkpt>
      <trkpt lat="43.5034" lon="4.37885">
        <ele>1</ele>
        <time>2019-10-25T11:18:44.001Z</time>
      </trkpt>
      <trkpt lat="43.50463" lon="4.37812">
        <ele>2.256</ele>
        <time>2019-10-25T11:19:14.001Z</time>
      </trkpt>
      <trkpt lat="43.50608" lon="4.37778">
        <ele>0.739</ele>
        <time>2019-10-25T11:19:47.001Z</time>
      </trkpt>
      <trkpt lat="43.50731" lon="4.37749">
        <ele>2.305</ele>
        <time>2019-10-25T11:20:17.001Z</time>
      </trkpt>
      <trkpt lat="43.50849" lon="4.37699">
        <ele>1.3</ele>
        <time>2019-10-25T11:20:47.001Z</time>
      </trkpt>
      <trkpt lat="43.50963" lon="4.37613">
        <ele>2</ele>
        <time>2019-10-25T11:21:17.001Z</time>
      </trkpt>
      <trkpt lat="43.51069" lon="4.37528">
        <ele>1</ele>
        <time>2019-10-25T11:21:47.001Z</time>
      </trkpt>
      <trkpt lat="43.51186" lon="4.37429">
        <ele>1.5</ele>
        <time>2019-10-25T11:22:20.001Z</time>
      </trkpt>
      <trkpt lat="43.51297" lon="4.37351">
        <ele>1.3</ele>
        <time>2019-10-25T11:22:50.001Z</time>
      </trkpt>
      <trkpt lat="43.51418" lon="4.37299">
        <ele>1.4</ele>
        <time>2019-10-25T11:23:20.001Z</time>
      </trkpt>
      <trkpt lat="43.51543" lon="4.37259">
        <ele>1</ele>
        <time>2019-10-25T11:23:50.001Z</time>
      </trkpt>
      <trkpt lat="43.51671" lon="4.37279">
        <ele>1</ele>
        <time>2019-10-25T11:24:20.001Z</time>
      </trkpt>
      <trkpt lat="43.5179" lon="4.37352">
        <ele>1.2</ele>
        <time>2019-10-25T11:24:50.001Z</time>
      </trkpt>
      <trkpt lat="43.51908" lon="4.37428">
        <ele>1.2</ele>
        <time>2019-10-25T11:25:23.001Z</time>
      </trkpt>
      <trkpt lat="43.52033" lon="4.37469">
        <ele>1.6</ele>
        <time>2019-10-25T11:25:53.001Z</time>
      </trkpt>
      <trkpt lat="43.52157" lon="4.37499">
        <ele>1.8</ele>
        <time>2019-10-25T11:26:23.001Z</time>
      </trkpt>
      <trkpt lat="43.52283" lon="4.37529">
        <ele>2.3</ele>
        <time>2019-10-25T11:26:53.001Z</time>
      </trkpt>
      <trkpt lat="43.52399" lon="4.37561">
        <ele>2.1</ele>
        <time>2019-10-25T11:27:23.001Z</time>
      </trkpt>
      <trkpt lat="43.52518" lon="4.37592">
        <ele>1</ele>
        <time>2019-10-25T11:27:53.001Z</time>
      </trkpt>
      <trkpt lat="43.52665" lon="4.37628">
        <ele>2.39</ele>
        <time>2019-10-25T11:28:26.001Z</time>
      </trkpt>
      <trkpt lat="43.52784" lon="4.37644">
        <ele>0.191</ele>
        <time>2019-10-25T11:28:56.001Z</time>
      </trkpt>
      <trkpt lat="43.52904" lon="4.37618">
        <ele>1.3</ele>
        <time>2019-10-25T11:29:26.001Z</time>
      </trkpt>
      <trkpt lat="43.53023" lon="4.3757">
        <ele>1</ele>
        <time>2019-10-25T11:29:56.001Z</time>
      </trkpt>
      <trkpt lat="43.53148" lon="4.37523">
        <ele>1</ele>
        <time>2019-10-25T11:30:26.001Z</time>
      </trkpt>
      <trkpt lat="43.53267" lon="4.37477">
        <ele>1.8</ele>
        <time>2019-10-25T11:30:56.001Z</time>
      </trkpt>
      <trkpt lat="43.53398" lon="4.37423">
        <ele>2.748</ele>
        <time>2019-10-25T11:31:29.001Z</time>
      </trkpt>
      <trkpt lat="43.53514" lon="4.3737">
        <ele>2.182</ele>
        <time>2019-10-25T11:31:59.001Z</time>
      </trkpt>
      <trkpt lat="43.53619" lon="4.37302">
        <ele>1.545</ele>
        <time>2019-10-25T11:32:29.001Z</time>
      </trkpt>
      <trkpt lat="43.53718" lon="4.37216">
        <ele>0.756</ele>
        <time>2019-10-25T11:32:59.001Z</time>
      </trkpt>
      <trkpt lat="43.53808" lon="4.37109">
        <ele>1</ele>
        <time>2019-10-25T11:33:29.001Z</time>
      </trkpt>
      <trkpt lat="43.53893" lon="4.3698">
        <ele>0.016</ele>
        <time>2019-10-25T11:33:59.001Z</time>
      </trkpt>
      <trkpt lat="43.53979" lon="4.3682">
        <ele>1</ele>
        <time>2019-10-25T11:34:32.001Z</time>
      </trkpt>
      <trkpt lat="43.54053" lon="4.36684">
        <ele>1</ele>
        <time>2019-10-25T11:35:02Z</time>
      </trkpt>
      <trkpt lat="43.5414" lon="4.36558">
        <ele>1.3</ele>
        <time>2019-10-25T11:35:32.001Z</time>
      </trkpt>
      <trkpt lat="43.54242" lon="4.36455">
        <ele>0.027</ele>
        <time>2019-10-25T11:36:02Z</time>
      </trkpt>
      <trkpt lat="43.54358" lon="4.36375">
        <ele>1.141</ele>
        <time>2019-10-25T11:36:32.001Z</time>
      </trkpt>
      <trkpt lat="43.54475" lon="4.36299">
        <ele>0.619</ele>
        <time>2019-10-25T11:37:02Z</time>
      </trkpt>
      <trkpt lat="43.54524" lon="4.36184">
        <ele>0.021</ele>
        <time>2019-10-25T11:37:35.001Z</time>
      </trkpt>
      <trkpt lat="43.54498" lon="4.35999">
        <ele>1</ele>
        <time>2019-10-25T11:38:05.001Z</time>
      </trkpt>
      <trkpt lat="43.54475" lon="4.35826">
        <ele>1</ele>
        <time>2019-10-25T11:38:35.001Z</time>
      </trkpt>
      <trkpt lat="43.5445" lon="4.35647">
        <ele>1</ele>
        <time>2019-10-25T11:39:05.001Z</time>
      </trkpt>
      <trkpt lat="43.54433" lon="4.35465">
        <ele>2</ele>
        <time>2019-10-25T11:39:35.001Z</time>
      </trkpt>
      <trkpt lat="43.54476" lon="4.35281">
        <ele>1.3</ele>
        <time>2019-10-25T11:40:08.001Z</time>
      </trkpt>
      <trkpt lat="43.54535" lon="4.3518">
        <ele>2.4</ele>
        <time>2019-10-25T11:40:38.001Z</time>
      </trkpt>
      <trkpt lat="43.54586" lon="4.35099">
        <ele>3.991</ele>
        <time>2019-10-25T11:41:08.001Z</time>
      </trkpt>
      <trkpt lat="43.54643" lon="4.35008">
        <ele>11.458</ele>
        <time>2019-10-25T11:41:38.001Z</time>
      </trkpt>
      <trkpt lat="43.54738" lon="4.34856">
        <ele>10.343</ele>
        <time>2019-10-25T11:42:08.001Z</time>
      </trkpt>
      <trkpt lat="43.5481" lon="4.34595">
        <ele>3.512</ele>
        <time>2019-10-25T11:42:38.001Z</time>
      </trkpt>
      <trkpt lat="43.54861" lon="4.34375">
        <ele>2.808</ele>
        <time>2019-10-25T11:43:11.001Z</time>
      </trkpt>
      <trkpt lat="43.54907" lon="4.34199">
        <ele>1.3</ele>
        <time>2019-10-25T11:43:41.001Z</time>
      </trkpt>
      <trkpt lat="43.54972" lon="4.34023">
        <ele>1</ele>
        <time>2019-10-25T11:44:11.001Z</time>
      </trkpt>
      <trkpt lat="43.55041" lon="4.33842">
        <ele>3</ele>
        <time>2019-10-25T11:44:41.001Z</time>
      </trkpt>
      <trkpt lat="43.55104" lon="4.33671">
        <ele>2.444</ele>
        <time>2019-10-25T11:45:11.001Z</time>
      </trkpt>
      <trkpt lat="43.55167" lon="4.33498">
        <ele>0.671</ele>
        <time>2019-10-25T11:45:41.001Z</time>
      </trkpt>
      <trkpt lat="43.55227" lon="4.33306">
        <ele>0.419</ele>
        <time>2019-10-25T11:46:14.001Z</time>
      </trkpt>
      <trkpt lat="43.55281" lon="4.33125">
        <ele>1.074</ele>
        <time>2019-10-25T11:46:44.001Z</time>
      </trkpt>
      <trkpt lat="43.55337" lon="4.32937">
        <ele>0.025</ele>
        <time>2019-10-25T11:47:14.001Z</time>
      </trkpt>
      <trkpt lat="43.55391" lon="4.32756">
        <ele>1</ele>
        <time>2019-10-25T11:47:44.001Z</time>
      </trkpt>
      <trkpt lat="43.55448" lon="4.32566">
        <ele>1</ele>
        <time>2019-10-25T11:48:14.001Z</time>
      </trkpt>
      <trkpt lat="43.55507" lon="4.32375">
        <ele>0.151</ele>
        <time>2019-10-25T11:48:44.001Z</time>
      </trkpt>
      <trkpt lat="43.55588" lon="4.32176">
        <ele>1.798</ele>
        <time>2019-10-25T11:49:17.001Z</time>
      </trkpt>
      <trkpt lat="43.55699" lon="4.32051">
        <ele>1.055</ele>
        <time>2019-10-25T11:49:47.001Z</time>
      </trkpt>
      <trkpt lat="43.55804" lon="4.31939">
        <ele>0.412</ele>
        <time>2019-10-25T11:50:17.001Z</time>
      </trkpt>
      <trkpt lat="43.55903" lon="4.31836">
        <ele>1</ele>
        <time>2019-10-25T11:50:47.001Z</time>
      </trkpt>
      <trkpt lat="43.56022" lon="4.31745">
        <ele>1.4</ele>
        <time>2019-10-25T11:51:17.001Z</time>
      </trkpt>
      <trkpt lat="43.56141" lon="4.31669">
        <ele>2.1</ele>
        <time>2019-10-25T11:51:47.001Z</time>
      </trkpt>
      <trkpt lat="43.56275" lon="4.31585">
        <ele>1</ele>
        <time>2019-10-25T11:52:20.001Z</time>
      </trkpt>
      <trkpt lat="43.56382" lon="4.31517">
        <ele>1</ele>
        <time>2019-10-25T11:52:50.001Z</time>
      </trkpt>
      <trkpt lat="43.56481" lon="4.31443">
        <ele>0.032</ele>
        <time>2019-10-25T11:53:20.001Z</time>
      </trkpt>
      <trkpt lat="43.5658" lon="4.31347">
        <ele>1.2</ele>
        <time>2019-10-25T11:53:50.001Z</time>
      </trkpt>
      <trkpt lat="43.5668" lon="4.31249">
        <ele>0.438</ele>
        <time>2019-10-25T11:54:20.001Z</time>
      </trkpt>
      <trkpt lat="43.56776" lon="4.31156">
        <ele>1</ele>
        <time>2019-10-25T11:54:50.001Z</time>
      </trkpt>
      <trkpt lat="43.56894" lon="4.31042">
        <ele>1</ele>
        <time>2019-10-25T11:55:23.001Z</time>
      </trkpt>
      <trkpt lat="43.56998" lon="4.30938">
        <ele>1</ele>
        <time>2019-10-25T11:55:53.001Z</time>
      </trkpt>
      <trkpt lat="43.57105" lon="4.30848">
        <ele>1</ele>
        <time>2019-10-25T11:56:23.001Z</time>
      </trkpt>
      <trkpt lat="43.57212" lon="4.30818">
        <ele>0.496</ele>
        <time>2019-10-25T11:56:53.001Z</time>
      </trkpt>
      <trkpt lat="43.57227" lon="4.30903">
        <ele>2.001</ele>
        <time>2019-10-25T12:00:11.001Z</time>
      </trkpt>
      <trkpt lat="43.57185" lon="4.31065">
        <ele>0.424</ele>
        <time>2019-10-25T12:00:44.001Z</time>
      </trkpt>
      <trkpt lat="43.57137" lon="4.31241">
        <ele>1</ele>
        <time>2019-10-25T12:01:14.001Z</time>
      </trkpt>
      <trkpt lat="43.57092" lon="4.31414">
        <ele>0.054</ele>
        <time>2019-10-25T12:01:44.001Z</time>
      </trkpt>
      <trkpt lat="43.57046" lon="4.31586">
        <ele>1</ele>
        <time>2019-10-25T12:02:14.001Z</time>
      </trkpt>
      <trkpt lat="43.57002" lon="4.31751">
        <ele>1.179</ele>
        <time>2019-10-25T12:02:44.001Z</time>
      </trkpt>
      <trkpt lat="43.56959" lon="4.31915">
        <ele>1.46</ele>
        <time>2019-10-25T12:03:14.001Z</time>
      </trkpt>
      <trkpt lat="43.56907" lon="4.32101">
        <ele>0.671</ele>
        <time>2019-10-25T12:03:47.001Z</time>
      </trkpt>
      <trkpt lat="43.56861" lon="4.32269">
        <ele>1.695</ele>
        <time>2019-10-25T12:04:17.001Z</time>
      </trkpt>
      <trkpt lat="43.56816" lon="4.3244">
        <ele>0.05</ele>
        <time>2019-10-25T12:04:47.001Z</time>
      </trkpt>
      <trkpt lat="43.56765" lon="4.32625">
        <ele>1.159</ele>
        <time>2019-10-25T12:05:17.001Z</time>
      </trkpt>
      <trkpt lat="43.56791" lon="4.32762">
        <ele>0.734</ele>
        <time>2019-10-25T12:05:47.001Z</time>
      </trkpt>
      <trkpt lat="43.56906" lon="4.32828">
        <ele>1.9</ele>
        <time>2019-10-25T12:06:17.001Z</time>
      </trkpt>
      <trkpt lat="43.5703" lon="4.32895">
        <ele>1</ele>
        <time>2019-10-25T12:06:50.001Z</time>
      </trkpt>
      <trkpt lat="43.57144" lon="4.3296">
        <ele>1</ele>
        <time>2019-10-25T12:07:20.001Z</time>
      </trkpt>
      <trkpt lat="43.57256" lon="4.33021">
        <ele>2.4</ele>
        <time>2019-10-25T12:07:50.001Z</time>
      </trkpt>
      <trkpt lat="43.57368" lon="4.33084">
        <ele>1.7</ele>
        <time>2019-10-25T12:08:20.001Z</time>
      </trkpt>
      <trkpt lat="43.57483" lon="4.33149">
        <ele>3.5</ele>
        <time>2019-10-25T12:08:50.001Z</time>
      </trkpt>
      <trkpt lat="43.576" lon="4.33214">
        <ele>0.04</ele>
        <time>2019-10-25T12:09:20.001Z</time>
      </trkpt>
      <trkpt lat="43.57723" lon="4.33285">
        <ele>0.618</ele>
        <time>2019-10-25T12:09:53.001Z</time>
      </trkpt>
      <trkpt lat="43.57844" lon="4.33351">
        <ele>1.7</ele>
        <time>2019-10-25T12:10:23.001Z</time>
      </trkpt>
      <trkpt lat="43.57957" lon="4.33413">
        <ele>1.6</ele>
        <time>2019-10-25T12:10:53.001Z</time>
      </trkpt>
      <trkpt lat="43.58079" lon="4.33481">
        <ele>2</ele>
        <time>2019-10-25T12:11:23.001Z</time>
      </trkpt>
      <trkpt lat="43.58198" lon="4.33547">
        <ele>0.552</ele>
        <time>2019-10-25T12:11:53.001Z</time>
      </trkpt>
      <trkpt lat="43.58312" lon="4.33617">
        <ele>1.2</ele>
        <time>2019-10-25T12:12:23.001Z</time>
      </trkpt>
      <trkpt lat="43.58349" lon="4.33821">
        <ele>0.694</ele>
        <time>2019-10-25T12:12:56.001Z</time>
      </trkpt>
      <trkpt lat="43.58388" lon="4.34001">
        <ele>0.967</ele>
        <time>2019-10-25T12:13:26.001Z</time>
      </trkpt>
      <trkpt lat="43.58379" lon="4.34183">
        <ele>1.467</ele>
        <time>2019-10-25T12:13:56.001Z</time>
      </trkpt>
      <trkpt lat="43.58371" lon="4.34361">
        <ele>1.772</ele>
        <time>2019-10-25T12:14:26.001Z</time>
      </trkpt>
      <trkpt lat="43.58361" lon="4.34537">
        <ele>1.566</ele>
        <time>2019-10-25T12:14:56.001Z</time>
      </trkpt>
      <trkpt lat="43.58347" lon="4.34717">
        <ele>0.95</ele>
        <time>2019-10-25T12:15:26.001Z</time>
      </trkpt>
      <trkpt lat="43.58463" lon="4.34706">
        <ele>5.774</ele>
        <time>2019-10-25T12:15:59.001Z</time>
      </trkpt>
      <trkpt lat="43.58591" lon="4.34643">
        <ele>2.434</ele>
        <time>2019-10-25T12:16:29.001Z</time>
      </trkpt>
      <trkpt lat="43.58709" lon="4.34583">
        <ele>2.754</ele>
        <time>2019-10-25T12:16:59.001Z</time>
      </trkpt>
      <trkpt lat="43.58836" lon="4.34519">
        <ele>2.793</ele>
        <time>2019-10-25T12:17:29.001Z</time>
      </trkpt>
      <trkpt lat="43.5896" lon="4.34454">
        <ele>4.477</ele>
        <time>2019-10-25T12:17:59.001Z</time>
      </trkpt>
      <trkpt lat="43.59094" lon="4.34388">
        <ele>1.897</ele>
        <time>2019-10-25T12:18:32.001Z</time>
      </trkpt>
      <trkpt lat="43.59219" lon="4.34326">
        <ele>0.157</ele>
        <time>2019-10-25T12:19:02Z</time>
      </trkpt>
      <trkpt lat="43.59342" lon="4.34264">
        <ele>1.364</ele>
        <time>2019-10-25T12:19:32.001Z</time>
      </trkpt>
      <trkpt lat="43.59458" lon="4.34204">
        <ele>2.082</ele>
        <time>2019-10-25T12:20:02Z</time>
      </trkpt>
      <trkpt lat="43.59578" lon="4.34145">
        <ele>1.97</ele>
        <time>2019-10-25T12:20:32.001Z</time>
      </trkpt>
      <trkpt lat="43.59694" lon="4.34086">
        <ele>1.484</ele>
        <time>2019-10-25T12:21:02Z</time>
      </trkpt>
      <trkpt lat="43.59825" lon="4.34021">
        <ele>0.468</ele>
        <time>2019-10-25T12:21:35.001Z</time>
      </trkpt>
      <trkpt lat="43.59942" lon="4.3396">
        <ele>0.777</ele>
        <time>2019-10-25T12:22:05.001Z</time>
      </trkpt>
      <trkpt lat="43.60054" lon="4.33905">
        <ele>1.146</ele>
        <time>2019-10-25T12:22:35.001Z</time>
      </trkpt>
      <trkpt lat="43.60164" lon="4.33849">
        <ele>1.552</ele>
        <time>2019-10-25T12:23:05.001Z</time>
      </trkpt>
      <trkpt lat="43.6027" lon="4.33796">
        <ele>1.217</ele>
        <time>2019-10-25T12:23:35.001Z</time>
      </trkpt>
      <trkpt lat="43.60376" lon="4.33742">
        <ele>1.007</ele>
        <time>2019-10-25T12:24:05.001Z</time>
      </trkpt>
      <trkpt lat="43.60496" lon="4.3367">
        <ele>1.062</ele>
        <time>2019-10-25T12:24:38.001Z</time>
      </trkpt>
      <trkpt lat="43.60612" lon="4.33608">
        <ele>0.691</ele>
        <time>2019-10-25T12:25:08.001Z</time>
      </trkpt>
      <trkpt lat="43.6071" lon="4.33493">
        <ele>1.489</ele>
        <time>2019-10-25T12:25:38.001Z</time>
      </trkpt>
      <trkpt lat="43.60805" lon="4.33376">
        <ele>4.981</ele>
        <time>2019-10-25T12:26:08.001Z</time>
      </trkpt>
      <trkpt lat="43.60897" lon="4.33267">
        <ele>3.578</ele>
        <time>2019-10-25T12:26:38.001Z</time>
      </trkpt>
      <trkpt lat="43.60989" lon="4.33158">
        <ele>2.842</ele>
        <time>2019-10-25T12:27:08.001Z</time>
      </trkpt>
      <trkpt lat="43.61095" lon="4.33032">
        <ele>2.995</ele>
        <time>2019-10-25T12:27:41.001Z</time>
      </trkpt>
      <trkpt lat="43.61196" lon="4.32914">
        <ele>1</ele>
        <time>2019-10-25T12:28:11.001Z</time>
      </trkpt>
      <trkpt lat="43.61292" lon="4.32798">
        <ele>2.113</ele>
        <time>2019-10-25T12:28:41.001Z</time>
      </trkpt>
      <trkpt lat="43.6139" lon="4.3268">
        <ele>2.836</ele>
        <time>2019-10-25T12:29:11.001Z</time>
      </trkpt>
      <trkpt lat="43.61487" lon="4.32564">
        <ele>1.224</ele>
        <time>2019-10-25T12:29:41.001Z</time>
      </trkpt>
      <trkpt lat="43.61583" lon="4.32451">
        <ele>3.623</ele>
        <time>2019-10-25T12:30:11.001Z</time>
      </trkpt>
      <trkpt lat="43.6169" lon="4.32322">
        <ele>5.523</ele>
        <time>2019-10-25T12:30:44.001Z</time>
      </trkpt>
      <trkpt lat="43.61783" lon="4.32211">
        <ele>5.878</ele>
        <time>2019-10-25T12:31:14.001Z</time>
      </trkpt>
      <trkpt lat="43.6188" lon="4.32097">
        <ele>4.431</ele>
        <time>2019-10-25T12:31:44.001Z</time>
      </trkpt>
      <trkpt lat="43.61976" lon="4.31983">
        <ele>2.317</ele>
        <time>2019-10-25T12:32:14.001Z</time>
      </trkpt>
      <trkpt lat="43.62076" lon="4.31866">
        <ele>2.023</ele>
        <time>2019-10-25T12:32:44.001Z</time>
      </trkpt>
      <trkpt lat="43.62171" lon="4.31751">
        <ele>1.932</ele>
        <time>2019-10-25T12:33:14.001Z</time>
      </trkpt>
      <trkpt lat="43.62278" lon="4.31624">
        <ele>3.906</ele>
        <time>2019-10-25T12:33:47.001Z</time>
      </trkpt>
      <trkpt lat="43.62372" lon="4.31509">
        <ele>5.384</ele>
        <time>2019-10-25T12:34:17.001Z</time>
      </trkpt>
      <trkpt lat="43.6247" lon="4.31391">
        <ele>3.223</ele>
        <time>2019-10-25T12:34:47.001Z</time>
      </trkpt>
      <trkpt lat="43.62565" lon="4.31279">
        <ele>2.237</ele>
        <time>2019-10-25T12:35:17.001Z</time>
      </trkpt>
      <trkpt lat="43.62665" lon="4.31159">
        <ele>3.825</ele>
        <time>2019-10-25T12:35:47.001Z</time>
      </trkpt>
      <trkpt lat="43.6278" lon="4.31026">
        <ele>1.872</ele>
        <time>2019-10-25T12:36:20.001Z</time>
      </trkpt>
      <trkpt lat="43.62879" lon="4.30907">
        <ele>1.194</ele>
        <time>2019-10-25T12:36:50.001Z</time>
      </trkpt>
      <trkpt lat="43.62977" lon="4.30789">
        <ele>1.443</ele>
        <time>2019-10-25T12:37:20.001Z</time>
      </trkpt>
      <trkpt lat="43.63079" lon="4.30667">
        <ele>0.375</ele>
        <time>2019-10-25T12:37:50.001Z</time>
      </trkpt>
      <trkpt lat="43.63175" lon="4.3055">
        <ele>0.862</ele>
        <time>2019-10-25T12:38:20.001Z</time>
      </trkpt>
      <trkpt lat="43.63276" lon="4.3043">
        <ele>1.552</ele>
        <time>2019-10-25T12:38:50.001Z</time>
      </trkpt>
      <trkpt lat="43.6339" lon="4.30293">
        <ele>1.732</ele>
        <time>2019-10-25T12:39:23.001Z</time>
      </trkpt>
      <trkpt lat="43.63494" lon="4.30167">
        <ele>2.55</ele>
        <time>2019-10-25T12:39:53.001Z</time>
      </trkpt>
      <trkpt lat="43.63596" lon="4.30045">
        <ele>4.443</ele>
        <time>2019-10-25T12:40:23.001Z</time>
      </trkpt>
      <trkpt lat="43.63669" lon="4.29915">
        <ele>4.294</ele>
        <time>2019-10-25T12:40:53.001Z</time>
      </trkpt>
      <trkpt lat="43.63733" lon="4.29858">
        <ele>10.373</ele>
        <time>2019-10-25T12:41:23.001Z</time>
      </trkpt>
      <trkpt lat="43.63815" lon="4.29833">
        <ele>13.39</ele>
        <time>2019-10-25T12:41:53.001Z</time>
      </trkpt>
      <trkpt lat="43.64028" lon="4.29796">
        <ele>6.824</ele>
        <time>2019-10-25T12:42:26.001Z</time>
      </trkpt>
      <trkpt lat="43.6415" lon="4.29779">
        <ele>3.302</ele>
        <time>2019-10-25T12:42:56.001Z</time>
      </trkpt>
      <trkpt lat="43.64221" lon="4.29708">
        <ele>9.96</ele>
        <time>2019-10-25T12:43:26.001Z</time>
      </trkpt>
      <trkpt lat="43.64327" lon="4.2967">
        <ele>7.437</ele>
        <time>2019-10-25T12:43:56.001Z</time>
      </trkpt>
      <trkpt lat="43.64438" lon="4.29634">
        <ele>7.818</ele>
        <time>2019-10-25T12:44:26.001Z</time>
      </trkpt>
      <trkpt lat="43.64532" lon="4.29607">
        <ele>6.875</ele>
        <time>2019-10-25T12:44:56.001Z</time>
      </trkpt>
      <trkpt lat="43.64625" lon="4.29578">
        <ele>10.504</ele>
        <time>2019-10-25T12:45:29.001Z</time>
      </trkpt>
      <trkpt lat="43.64713" lon="4.29566">
        <ele>13.757</ele>
        <time>2019-10-25T12:45:59.001Z</time>
      </trkpt>
      <trkpt lat="43.64799" lon="4.2958">
        <ele>16.108</ele>
        <time>2019-10-25T12:46:29.001Z</time>
      </trkpt>
      <trkpt lat="43.64872" lon="4.29638">
        <ele>16.143</ele>
        <time>2019-10-25T12:46:59.001Z</time>
      </trkpt>
      <trkpt lat="43.64955" lon="4.29632">
        <ele>22.829</ele>
        <time>2019-10-25T12:47:29.001Z</time>
      </trkpt>
      <trkpt lat="43.65021" lon="4.29599">
        <ele>23.409</ele>
        <time>2019-10-25T12:47:59.001Z</time>
      </trkpt>
      <trkpt lat="43.64993" lon="4.29432">
        <ele>21.942</ele>
        <time>2019-10-25T12:48:32.001Z</time>
      </trkpt>
      <trkpt lat="43.64964" lon="4.29249">
        <ele>22.144</ele>
        <time>2019-10-25T12:49:02Z</time>
      </trkpt>
      <trkpt lat="43.64956" lon="4.29173">
        <ele>22.258</ele>
        <time>2019-10-25T13:09:14.001Z</time>
      </trkpt>
      <trkpt lat="43.64946" lon="4.29021">
        <ele>19.878</ele>
        <time>2019-10-25T13:09:44.001Z</time>
      </trkpt>
      <trkpt lat="43.6493" lon="4.28839">
        <ele>18.175</ele>
        <time>2019-10-25T13:10:14.001Z</time>
      </trkpt>
      <trkpt lat="43.64921" lon="4.28668">
        <ele>18.934</ele>
        <time>2019-10-25T13:10:44.001Z</time>
      </trkpt>
      <trkpt lat="43.64923" lon="4.28485">
        <ele>21.611</ele>
        <time>2019-10-25T13:11:17.001Z</time>
      </trkpt>
      <trkpt lat="43.64946" lon="4.28307">
        <ele>23.738</ele>
        <time>2019-10-25T13:11:47.001Z</time>
      </trkpt>
      <trkpt lat="43.64987" lon="4.28133">
        <ele>26.591</ele>
        <time>2019-10-25T13:12:17.001Z</time>
      </trkpt>
      <trkpt lat="43.65047" lon="4.2797">
        <ele>27.572</ele>
        <time>2019-10-25T13:12:47.001Z</time>
      </trkpt>
      <trkpt lat="43.65121" lon="4.27812">
        <ele>26.989</ele>
        <time>2019-10-25T13:13:17.001Z</time>
      </trkpt>
      <trkpt lat="43.65216" lon="4.27623">
        <ele>25.799</ele>
        <time>2019-10-25T13:13:50.001Z</time>
      </trkpt>
      <trkpt lat="43.65303" lon="4.27435">
        <ele>20.086</ele>
        <time>2019-10-25T13:14:20.001Z</time>
      </trkpt>
      <trkpt lat="43.65394" lon="4.27256">
        <ele>18.195</ele>
        <time>2019-10-25T13:14:50.001Z</time>
      </trkpt>
      <trkpt lat="43.65497" lon="4.27051">
        <ele>16.386</ele>
        <time>2019-10-25T13:15:20.001Z</time>
      </trkpt>
      <trkpt lat="43.65583" lon="4.26869">
        <ele>16.237</ele>
        <time>2019-10-25T13:15:50.001Z</time>
      </trkpt>
      <trkpt lat="43.65658" lon="4.26706">
        <ele>18.123</ele>
        <time>2019-10-25T13:16:20.001Z</time>
      </trkpt>
      <trkpt lat="43.65754" lon="4.26512">
        <ele>20.151</ele>
        <time>2019-10-25T13:16:53.001Z</time>
      </trkpt>
      <trkpt lat="43.65844" lon="4.26329">
        <ele>17.046</ele>
        <time>2019-10-25T13:17:23.001Z</time>
      </trkpt>
      <trkpt lat="43.65961" lon="4.26184">
        <ele>14.309</ele>
        <time>2019-10-25T13:17:53.001Z</time>
      </trkpt>
      <trkpt lat="43.66097" lon="4.26094">
        <ele>11.134</ele>
        <time>2019-10-25T13:18:23.001Z</time>
      </trkpt>
      <trkpt lat="43.66234" lon="4.26059">
        <ele>6.417</ele>
        <time>2019-10-25T13:18:53.001Z</time>
      </trkpt>
      <trkpt lat="43.66373" lon="4.26077">
        <ele>9.117</ele>
        <time>2019-10-25T13:19:23.001Z</time>
      </trkpt>
      <trkpt lat="43.66541" lon="4.26098">
        <ele>13.722</ele>
        <time>2019-10-25T13:19:56.001Z</time>
      </trkpt>
      <trkpt lat="43.6668" lon="4.26136">
        <ele>13.304</ele>
        <time>2019-10-25T13:20:26.001Z</time>
      </trkpt>
      <trkpt lat="43.66811" lon="4.26147">
        <ele>9.438</ele>
        <time>2019-10-25T13:20:56.001Z</time>
      </trkpt>
      <trkpt lat="43.66819" lon="4.25972">
        <ele>1.995</ele>
        <time>2019-10-25T13:21:26.001Z</time>
      </trkpt>
      <trkpt lat="43.66974" lon="4.25832">
        <ele>3.9</ele>
        <time>2019-10-25T13:21:56.001Z</time>
      </trkpt>
      <trkpt lat="43.67109" lon="4.25709">
        <ele>4.5</ele>
        <time>2019-10-25T13:22:26.001Z</time>
      </trkpt>
      <trkpt lat="43.67103" lon="4.2546">
        <ele>1.328</ele>
        <time>2019-10-25T13:22:59.001Z</time>
      </trkpt>
      <trkpt lat="43.67092" lon="4.25246">
        <ele>1.016</ele>
        <time>2019-10-25T13:23:29.001Z</time>
      </trkpt>
      <trkpt lat="43.67083" lon="4.2503">
        <ele>3.454</ele>
        <time>2019-10-25T13:23:59.001Z</time>
      </trkpt>
      <trkpt lat="43.67047" lon="4.24818">
        <ele>4.4</ele>
        <time>2019-10-25T13:24:29.001Z</time>
      </trkpt>
      <trkpt lat="43.67011" lon="4.24606">
        <ele>5.4</ele>
        <time>2019-10-25T13:24:59.001Z</time>
      </trkpt>
      <trkpt lat="43.66988" lon="4.24433">
        <ele>2.957</ele>
        <time>2019-10-25T13:25:29.001Z</time>
      </trkpt>
      <trkpt lat="43.6712" lon="4.24286">
        <ele>5.341</ele>
        <time>2019-10-25T13:26:02Z</time>
      </trkpt>
      <trkpt lat="43.67171" lon="4.2408">
        <ele>2.251</ele>
        <time>2019-10-25T13:26:32.001Z</time>
      </trkpt>
      <trkpt lat="43.67253" lon="4.239">
        <ele>2.938</ele>
        <time>2019-10-25T13:27:02Z</time>
      </trkpt>
      <trkpt lat="43.67292" lon="4.23704">
        <ele>8.171</ele>
        <time>2019-10-25T13:27:32.001Z</time>
      </trkpt>
      <trkpt lat="43.67355" lon="4.23775">
        <ele>9.137</ele>
        <time>2019-10-25T13:28:02Z</time>
      </trkpt>
      <trkpt lat="43.67457" lon="4.23856">
        <ele>12.56</ele>
        <time>2019-10-25T13:28:32.001Z</time>
      </trkpt>
      <trkpt lat="43.67545" lon="4.23726">
        <ele>16.822</ele>
        <time>2019-10-25T13:29:05.001Z</time>
      </trkpt>
      <trkpt lat="43.67675" lon="4.23649">
        <ele>11.105</ele>
        <time>2019-10-25T13:29:35.001Z</time>
      </trkpt>
      <trkpt lat="43.67799" lon="4.23568">
        <ele>2.723</ele>
        <time>2019-10-25T13:30:05.001Z</time>
      </trkpt>
      <trkpt lat="43.67943" lon="4.23533">
        <ele>2.415</ele>
        <time>2019-10-25T13:30:35.001Z</time>
      </trkpt>
      <trkpt lat="43.68075" lon="4.23497">
        <ele>2.769</ele>
        <time>2019-10-25T13:31:05.001Z</time>
      </trkpt>
      <trkpt lat="43.68213" lon="4.23446">
        <ele>8.797</ele>
        <time>2019-10-25T13:31:38.001Z</time>
      </trkpt>
      <trkpt lat="43.68323" lon="4.23364">
        <ele>5.981</ele>
        <time>2019-10-25T13:32:08.001Z</time>
      </trkpt>
      <trkpt lat="43.68289" lon="4.23167">
        <ele>1.87</ele>
        <time>2019-10-25T13:32:38.001Z</time>
      </trkpt>
      <trkpt lat="43.6837" lon="4.23044">
        <ele>4.8</ele>
        <time>2019-10-25T13:33:08.001Z</time>
      </trkpt>
      <trkpt lat="43.68485" lon="4.22964">
        <ele>4.2</ele>
        <time>2019-10-25T13:33:38.001Z</time>
      </trkpt>
      <trkpt lat="43.68603" lon="4.22928">
        <ele>5.3</ele>
        <time>2019-10-25T13:34:08.001Z</time>
      </trkpt>
      <trkpt lat="43.68716" lon="4.22875">
        <ele>4.7</ele>
        <time>2019-10-25T13:34:41.001Z</time>
      </trkpt>
      <trkpt lat="43.68726" lon="4.22681">
        <ele>5.6</ele>
        <time>2019-10-25T13:35:11.001Z</time>
      </trkpt>
      <trkpt lat="43.68719" lon="4.22478">
        <ele>1.168</ele>
        <time>2019-10-25T13:35:41.001Z</time>
      </trkpt>
      <trkpt lat="43.68738" lon="4.22261">
        <ele>0.594</ele>
        <time>2019-10-25T13:36:11.001Z</time>
      </trkpt>
      <trkpt lat="43.68768" lon="4.22049">
        <ele>0.873</ele>
        <time>2019-10-25T13:36:41.001Z</time>
      </trkpt>
      <trkpt lat="43.68776" lon="4.21838">
        <ele>6.6</ele>
        <time>2019-10-25T13:37:11.001Z</time>
      </trkpt>
      <trkpt lat="43.68795" lon="4.21611">
        <ele>6.8</ele>
        <time>2019-10-25T13:37:44.001Z</time>
      </trkpt>
      <trkpt lat="43.68856" lon="4.21462">
        <ele>2.028</ele>
        <time>2019-10-25T13:38:14.001Z</time>
      </trkpt>
      <trkpt lat="43.68951" lon="4.21319">
        <ele>0.755</ele>
        <time>2019-10-25T13:38:44.001Z</time>
      </trkpt>
      <trkpt lat="43.69023" lon="4.21134">
        <ele>1.678</ele>
        <time>2019-10-25T13:39:14.001Z</time>
      </trkpt>
      <trkpt lat="43.69088" lon="4.20936">
        <ele>2.069</ele>
        <time>2019-10-25T13:39:44.001Z</time>
      </trkpt>
      <trkpt lat="43.69159" lon="4.20746">
        <ele>2.949</ele>
        <time>2019-10-25T13:40:14.001Z</time>
      </trkpt>
      <trkpt lat="43.69249" lon="4.20573">
        <ele>0.878</ele>
        <time>2019-10-25T13:40:47.001Z</time>
      </trkpt>
      <trkpt lat="43.69332" lon="4.20438">
        <ele>1.377</ele>
        <time>2019-10-25T13:41:17.001Z</time>
      </trkpt>
      <trkpt lat="43.6943" lon="4.2033">
        <ele>0.383</ele>
        <time>2019-10-25T13:41:47.001Z</time>
      </trkpt>
      <trkpt lat="43.69362" lon="4.20356">
        <ele>9.8</ele>
        <time>2019-10-25T13:42:17.001Z</time>
      </trkpt>
      <trkpt lat="43.6924" lon="4.20539">
        <ele>1.811</ele>
        <time>2019-10-25T13:42:47.001Z</time>
      </trkpt>
      <trkpt lat="43.69118" lon="4.20644">
        <ele>3.851</ele>
        <time>2019-10-25T13:43:17.001Z</time>
      </trkpt>
      <trkpt lat="43.69196" lon="4.20524">
        <ele>3.211</ele>
        <time>2019-10-25T13:43:50.001Z</time>
      </trkpt>
      <trkpt lat="43.69207" lon="4.20541">
        <ele>1.848</ele>
        <time>2019-10-25T14:03:17.001Z</time>
      </trkpt>
      <trkpt lat="43.69243" lon="4.20469">
        <ele>15.991</ele>
        <time>2019-10-25T14:03:47.001Z</time>
      </trkpt>
      <trkpt lat="43.69312" lon="4.20365">
        <ele>10.085</ele>
        <time>2019-10-25T14:04:17.001Z</time>
      </trkpt>
      <trkpt lat="43.69308" lon="4.20383">
        <ele>9.995</ele>
        <time>2019-10-25T14:05:02Z</time>
      </trkpt>
      <trkpt lat="43.6937" lon="4.20317">
        <ele>12.406</ele>
        <time>2019-10-25T14:22:14.001Z</time>
      </trkpt>
      <trkpt lat="43.69447" lon="4.20329">
        <ele>8.612</ele>
        <time>2019-10-25T14:22:47.001Z</time>
      </trkpt>
      <trkpt lat="43.69596" lon="4.20336">
        <ele>8.297</ele>
        <time>2019-10-25T14:23:17.001Z</time>
      </trkpt>
      <trkpt lat="43.69747" lon="4.20408">
        <ele>12.417</ele>
        <time>2019-10-25T14:23:47.001Z</time>
      </trkpt>
      <trkpt lat="43.69881" lon="4.20475">
        <ele>10.438</ele>
        <time>2019-10-25T14:24:17.001Z</time>
      </trkpt>
      <trkpt lat="43.69979" lon="4.20588">
        <ele>7.41</ele>
        <time>2019-10-25T14:24:47.001Z</time>
      </trkpt>
      <trkpt lat="43.70095" lon="4.20701">
        <ele>11.139</ele>
        <time>2019-10-25T14:25:20.001Z</time>
      </trkpt>
      <trkpt lat="43.70216" lon="4.20789">
        <ele>15.832</ele>
        <time>2019-10-25T14:25:50.001Z</time>
      </trkpt>
      <trkpt lat="43.70345" lon="4.20856">
        <ele>16.167</ele>
        <time>2019-10-25T14:26:20.001Z</time>
      </trkpt>
      <trkpt lat="43.70465" lon="4.20949">
        <ele>11.418</ele>
        <time>2019-10-25T14:26:50.001Z</time>
      </trkpt>
      <trkpt lat="43.70565" lon="4.21058">
        <ele>12.692</ele>
        <time>2019-10-25T14:27:20.001Z</time>
      </trkpt>
      <trkpt lat="43.70669" lon="4.21169">
        <ele>11.607</ele>
        <time>2019-10-25T14:27:50.001Z</time>
      </trkpt>
      <trkpt lat="43.70783" lon="4.21302">
        <ele>10.418</ele>
        <time>2019-10-25T14:28:23.001Z</time>
      </trkpt>
      <trkpt lat="43.70913" lon="4.21384">
        <ele>8.69</ele>
        <time>2019-10-25T14:28:53.001Z</time>
      </trkpt>
      <trkpt lat="43.7103" lon="4.21395">
        <ele>11.427</ele>
        <time>2019-10-25T14:29:23.001Z</time>
      </trkpt>
      <trkpt lat="43.71091" lon="4.21245">
        <ele>16.563</ele>
        <time>2019-10-25T14:29:53.001Z</time>
      </trkpt>
      <trkpt lat="43.7116" lon="4.21064">
        <ele>12.491</ele>
        <time>2019-10-25T14:30:23.001Z</time>
      </trkpt>
      <trkpt lat="43.71229" lon="4.20891">
        <ele>12.016</ele>
        <time>2019-10-25T14:30:53.001Z</time>
      </trkpt>
      <trkpt lat="43.71292" lon="4.20691">
        <ele>10.587</ele>
        <time>2019-10-25T14:31:26.001Z</time>
      </trkpt>
      <trkpt lat="43.71341" lon="4.20503">
        <ele>9.178</ele>
        <time>2019-10-25T14:31:56.001Z</time>
      </trkpt>
      <trkpt lat="43.71406" lon="4.20325">
        <ele>8.12</ele>
        <time>2019-10-25T14:32:26.001Z</time>
      </trkpt>
      <trkpt lat="43.71505" lon="4.2019">
        <ele>9.809</ele>
        <time>2019-10-25T14:32:56.001Z</time>
      </trkpt>
      <trkpt lat="43.71585" lon="4.20145">
        <ele>13.414</ele>
        <time>2019-10-25T14:33:26.001Z</time>
      </trkpt>
      <trkpt lat="43.71712" lon="4.20261">
        <ele>17.204</ele>
        <time>2019-10-25T14:33:56.001Z</time>
      </trkpt>
      <trkpt lat="43.71857" lon="4.20409">
        <ele>13.206</ele>
        <time>2019-10-25T14:34:29.001Z</time>
      </trkpt>
      <trkpt lat="43.7195" lon="4.20571">
        <ele>9.75</ele>
        <time>2019-10-25T14:34:59.001Z</time>
      </trkpt>
      <trkpt lat="43.72051" lon="4.20496">
        <ele>10.106</ele>
        <time>2019-10-25T14:35:29.001Z</time>
      </trkpt>
      <trkpt lat="43.72165" lon="4.2036">
        <ele>15.014</ele>
        <time>2019-10-25T14:35:59.001Z</time>
      </trkpt>
      <trkpt lat="43.72231" lon="4.20205">
        <ele>16.843</ele>
        <time>2019-10-25T14:36:29.001Z</time>
      </trkpt>
      <trkpt lat="43.72304" lon="4.19983">
        <ele>16.722</ele>
        <time>2019-10-25T14:36:59.001Z</time>
      </trkpt>
      <trkpt lat="43.7239" lon="4.19796">
        <ele>15.503</ele>
        <time>2019-10-25T14:37:32.001Z</time>
      </trkpt>
      <trkpt lat="43.72463" lon="4.19638">
        <ele>18.623</ele>
        <time>2019-10-25T14:38:02Z</time>
      </trkpt>
      <trkpt lat="43.72544" lon="4.19484">
        <ele>19.717</ele>
        <time>2019-10-25T14:38:32.001Z</time>
      </trkpt>
      <trkpt lat="43.72616" lon="4.19348">
        <ele>18.025</ele>
        <time>2019-10-25T14:39:02Z</time>
      </trkpt>
      <trkpt lat="43.7271" lon="4.19209">
        <ele>18.388</ele>
        <time>2019-10-25T14:39:32.001Z</time>
      </trkpt>
      <trkpt lat="43.72806" lon="4.19063">
        <ele>24.87</ele>
        <time>2019-10-25T14:40:02Z</time>
      </trkpt>
      <trkpt lat="43.72893" lon="4.1891">
        <ele>23.839</ele>
        <time>2019-10-25T14:40:35.001Z</time>
      </trkpt>
      <trkpt lat="43.73018" lon="4.18836">
        <ele>28.296</ele>
        <time>2019-10-25T14:41:05.001Z</time>
      </trkpt>
      <trkpt lat="43.73144" lon="4.1879">
        <ele>26.497</ele>
        <time>2019-10-25T14:41:35.001Z</time>
      </trkpt>
      <trkpt lat="43.73258" lon="4.18749">
        <ele>27.719</ele>
        <time>2019-10-25T14:42:05.001Z</time>
      </trkpt>
      <trkpt lat="43.733" lon="4.18621">
        <ele>35.986</ele>
        <time>2019-10-25T14:42:35.001Z</time>
      </trkpt>
      <trkpt lat="43.73323" lon="4.18467">
        <ele>46.425</ele>
        <time>2019-10-25T14:43:08.001Z</time>
      </trkpt>
      <trkpt lat="43.73369" lon="4.18331">
        <ele>41.814</ele>
        <time>2019-10-25T14:43:38.001Z</time>
      </trkpt>
      <trkpt lat="43.73445" lon="4.18247">
        <ele>44.399</ele>
        <time>2019-10-25T14:44:08.001Z</time>
      </trkpt>
      <trkpt lat="43.73533" lon="4.18163">
        <ele>46.132</ele>
        <time>2019-10-25T14:44:38.001Z</time>
      </trkpt>
      <trkpt lat="43.73617" lon="4.18085">
        <ele>49.677</ele>
        <time>2019-10-25T14:45:08.001Z</time>
      </trkpt>
      <trkpt lat="43.73697" lon="4.18006">
        <ele>50.659</ele>
        <time>2019-10-25T14:45:38.001Z</time>
      </trkpt>
      <trkpt lat="43.73775" lon="4.17895">
        <ele>60.591</ele>
        <time>2019-10-25T14:46:11.001Z</time>
      </trkpt>
      <trkpt lat="43.73835" lon="4.17786">
        <ele>64.295</ele>
        <time>2019-10-25T14:46:41.001Z</time>
      </trkpt>
      <trkpt lat="43.73886" lon="4.17648">
        <ele>58.529</ele>
        <time>2019-10-25T14:47:11.001Z</time>
      </trkpt>
      <trkpt lat="43.7391" lon="4.17523">
        <ele>56.061</ele>
        <time>2019-10-25T14:47:41.001Z</time>
      </trkpt>
      <trkpt lat="43.73986" lon="4.17459">
        <ele>52.939</ele>
        <time>2019-10-25T14:48:11.001Z</time>
      </trkpt>
      <trkpt lat="43.74051" lon="4.17526">
        <ele>50.922</ele>
        <time>2019-10-25T14:51:23.001Z</time>
      </trkpt>
      <trkpt lat="43.74127" lon="4.17513">
        <ele>53.363</ele>
        <time>2019-10-25T14:51:56.001Z</time>
      </trkpt>
      <trkpt lat="43.74215" lon="4.17477">
        <ele>50.493</ele>
        <time>2019-10-25T14:52:26.001Z</time>
      </trkpt>
      <trkpt lat="43.74286" lon="4.17385">
        <ele>54.752</ele>
        <time>2019-10-25T14:52:56.001Z</time>
      </trkpt>
      <trkpt lat="43.74376" lon="4.17301">
        <ele>49.266</ele>
        <time>2019-10-25T14:53:26.001Z</time>
      </trkpt>
      <trkpt lat="43.74456" lon="4.17223">
        <ele>51.183</ele>
        <time>2019-10-25T14:53:56.001Z</time>
      </trkpt>
      <trkpt lat="43.74522" lon="4.17156">
        <ele>56.411</ele>
        <time>2019-10-25T14:54:26.001Z</time>
      </trkpt>
      <trkpt lat="43.74572" lon="4.17055">
        <ele>59.31</ele>
        <time>2019-10-25T14:54:59.001Z</time>
      </trkpt>
      <trkpt lat="43.74652" lon="4.17007">
        <ele>64.322</ele>
        <time>2019-10-25T14:55:29.001Z</time>
      </trkpt>
      <trkpt lat="43.74754" lon="4.16995">
        <ele>68.206</ele>
        <time>2019-10-25T14:55:59.001Z</time>
      </trkpt>
      <trkpt lat="43.74854" lon="4.16891">
        <ele>72.044</ele>
        <time>2019-10-25T14:56:29.001Z</time>
      </trkpt>
      <trkpt lat="43.75001" lon="4.16578">
        <ele>58.115</ele>
        <time>2019-10-25T14:56:59.001Z</time>
      </trkpt>
      <trkpt lat="43.75105" lon="4.16543">
        <ele>53.376</ele>
        <time>2019-10-25T14:57:29.001Z</time>
      </trkpt>
      <trkpt lat="43.75199" lon="4.1658">
        <ele>63.419</ele>
        <time>2019-10-25T14:58:02Z</time>
      </trkpt>
      <trkpt lat="43.75273" lon="4.16643">
        <ele>64.134</ele>
        <time>2019-10-25T14:58:32.001Z</time>
      </trkpt>
      <trkpt lat="43.75347" lon="4.16711">
        <ele>68.077</ele>
        <time>2019-10-25T14:59:02Z</time>
      </trkpt>
      <trkpt lat="43.75443" lon="4.1681">
        <ele>66.499</ele>
        <time>2019-10-25T14:59:32.001Z</time>
      </trkpt>
      <trkpt lat="43.75538" lon="4.16864">
        <ele>68.573</ele>
        <time>2019-10-25T15:00:02Z</time>
      </trkpt>
      <trkpt lat="43.75644" lon="4.16829">
        <ele>67.123</ele>
        <time>2019-10-25T15:00:32.001Z</time>
      </trkpt>
      <trkpt lat="43.75727" lon="4.16745">
        <ele>69.623</ele>
        <time>2019-10-25T15:01:05.001Z</time>
      </trkpt>
      <trkpt lat="43.75784" lon="4.16687">
        <ele>72.916</ele>
        <time>2019-10-25T15:01:38.001Z</time>
      </trkpt>
      <trkpt lat="43.75832" lon="4.16615">
        <ele>75.867</ele>
        <time>2019-10-25T15:02:08.001Z</time>
      </trkpt>
      <trkpt lat="43.75908" lon="4.16558">
        <ele>75.09</ele>
        <time>2019-10-25T15:02:38.001Z</time>
      </trkpt>
      <trkpt lat="43.75994" lon="4.16505">
        <ele>78.494</ele>
        <time>2019-10-25T15:03:08.001Z</time>
      </trkpt>
      <trkpt lat="43.76074" lon="4.16488">
        <ele>78.818</ele>
        <time>2019-10-25T15:03:41.001Z</time>
      </trkpt>
      <trkpt lat="43.76149" lon="4.16468">
        <ele>82.914</ele>
        <time>2019-10-25T15:04:11.001Z</time>
      </trkpt>
      <trkpt lat="43.76186" lon="4.164">
        <ele>84.736</ele>
        <time>2019-10-25T15:04:41.001Z</time>
      </trkpt>
      <trkpt lat="43.76195" lon="4.16302">
        <ele>84.454</ele>
        <time>2019-10-25T15:05:11.001Z</time>
      </trkpt>
      <trkpt lat="43.76207" lon="4.16213">
        <ele>84.814</ele>
        <time>2019-10-25T15:05:41.001Z</time>
      </trkpt>
      <trkpt lat="43.76231" lon="4.16113">
        <ele>87.859</ele>
        <time>2019-10-25T15:06:11.001Z</time>
      </trkpt>
      <trkpt lat="43.76271" lon="4.16003">
        <ele>84.476</ele>
        <time>2019-10-25T15:06:44.001Z</time>
      </trkpt>
      <trkpt lat="43.76298" lon="4.15948">
        <ele>84.548</ele>
        <time>2019-10-25T15:07:23.001Z</time>
      </trkpt>
      <trkpt lat="43.76404" lon="4.15982">
        <ele>84.465</ele>
        <time>2019-10-25T15:07:53.001Z</time>
      </trkpt>
      <trkpt lat="43.76686" lon="4.15949">
        <ele>73.252</ele>
        <time>2019-10-25T15:08:23.001Z</time>
      </trkpt>
      <trkpt lat="43.76965" lon="4.15977">
        <ele>60.711</ele>
        <time>2019-10-25T15:08:53.001Z</time>
      </trkpt>
      <trkpt lat="43.7712" lon="4.15972">
        <ele>59.135</ele>
        <time>2019-10-25T15:09:23.001Z</time>
      </trkpt>
      <trkpt lat="43.77251" lon="4.15945">
        <ele>63.839</ele>
        <time>2019-10-25T15:09:56.001Z</time>
      </trkpt>
      <trkpt lat="43.77342" lon="4.15923">
        <ele>70.605</ele>
        <time>2019-10-25T15:10:26.001Z</time>
      </trkpt>
      <trkpt lat="43.77333" lon="4.15774">
        <ele>65.755</ele>
        <time>2019-10-25T15:10:56.001Z</time>
      </trkpt>
      <trkpt lat="43.77327" lon="4.15589">
        <ele>69.885</ele>
        <time>2019-10-25T15:11:26.001Z</time>
      </trkpt>
      <trkpt lat="43.77317" lon="4.15466">
        <ele>66.515</ele>
        <time>2019-10-25T15:12:32.001Z</time>
      </trkpt>
      <trkpt lat="43.77296" lon="4.15259">
        <ele>64.605</ele>
        <time>2019-10-25T15:13:02Z</time>
      </trkpt>
      <trkpt lat="43.77282" lon="4.15029">
        <ele>61.941</ele>
        <time>2019-10-25T15:13:35.001Z</time>
      </trkpt>
      <trkpt lat="43.77282" lon="4.14819">
        <ele>65.524</ele>
        <time>2019-10-25T15:14:05.001Z</time>
      </trkpt>
      <trkpt lat="43.77292" lon="4.14609">
        <ele>64.382</ele>
        <time>2019-10-25T15:14:35.001Z</time>
      </trkpt>
      <trkpt lat="43.77315" lon="4.14403">
        <ele>64.588</ele>
        <time>2019-10-25T15:15:05.001Z</time>
      </trkpt>
      <trkpt lat="43.77342" lon="4.14202">
        <ele>64.019</ele>
        <time>2019-10-25T15:15:35.001Z</time>
      </trkpt>
      <trkpt lat="43.77371" lon="4.13999">
        <ele>63.131</ele>
        <time>2019-10-25T15:16:05.001Z</time>
      </trkpt>
      <trkpt lat="43.774" lon="4.13769">
        <ele>64.47</ele>
        <time>2019-10-25T15:16:38.001Z</time>
      </trkpt>
      <trkpt lat="43.77427" lon="4.13573">
        <ele>64.427</ele>
        <time>2019-10-25T15:17:08.001Z</time>
      </trkpt>
      <trkpt lat="43.775" lon="4.13597">
        <ele>63.943</ele>
        <time>2019-10-25T15:17:38.001Z</time>
      </trkpt>
      <trkpt lat="43.77566" lon="4.13598">
        <ele>62.979</ele>
        <time>2019-10-25T15:18:08.001Z</time>
      </trkpt>
      <trkpt lat="43.77654" lon="4.13543">
        <ele>63.844</ele>
        <time>2019-10-25T15:18:38.001Z</time>
      </trkpt>
      <trkpt lat="43.77724" lon="4.13472">
        <ele>69.266</ele>
        <time>2019-10-25T15:19:08.001Z</time>
      </trkpt>
      <trkpt lat="43.77815" lon="4.13428">
        <ele>68.703</ele>
        <time>2019-10-25T15:19:41.001Z</time>
      </trkpt>
      <trkpt lat="43.77914" lon="4.13406">
        <ele>69.615</ele>
        <time>2019-10-25T15:20:11.001Z</time>
      </trkpt>
      <trkpt lat="43.78004" lon="4.13382">
        <ele>70.428</ele>
        <time>2019-10-25T15:20:41.001Z</time>
      </trkpt>
      <trkpt lat="43.78093" lon="4.13349">
        <ele>69.363</ele>
        <time>2019-10-25T15:21:11.001Z</time>
      </trkpt>
      <trkpt lat="43.78156" lon="4.13307">
        <ele>72.65</ele>
        <time>2019-10-25T15:21:41.001Z</time>
      </trkpt>
      <trkpt lat="43.78179" lon="4.13324">
        <ele>74.076</ele>
        <time>2019-10-25T15:22:14.001Z</time>
      </trkpt>
      <trkpt lat="43.78238" lon="4.13196">
        <ele>76.73</ele>
        <time>2019-10-25T15:22:44.001Z</time>
      </trkpt>
      <trkpt lat="43.78294" lon="4.13089">
        <ele>77.293</ele>
        <time>2019-10-25T15:23:14.001Z</time>
      </trkpt>
      <trkpt lat="43.78351" lon="4.12998">
        <ele>80.025</ele>
        <time>2019-10-25T15:23:44.001Z</time>
      </trkpt>
      <trkpt lat="43.78414" lon="4.12901">
        <ele>82.877</ele>
        <time>2019-10-25T15:24:14.001Z</time>
      </trkpt>
      <trkpt lat="43.78535" lon="4.12715">
        <ele>76.924</ele>
        <time>2019-10-25T15:24:44.001Z</time>
      </trkpt>
      <trkpt lat="43.78665" lon="4.12443">
        <ele>67.933</ele>
        <time>2019-10-25T15:25:17.001Z</time>
      </trkpt>
      <trkpt lat="43.78761" lon="4.12248">
        <ele>67.956</ele>
        <time>2019-10-25T15:25:47.001Z</time>
      </trkpt>
      <trkpt lat="43.78842" lon="4.1219">
        <ele>74.144</ele>
        <time>2019-10-25T15:26:17.001Z</time>
      </trkpt>
      <trkpt lat="43.78881" lon="4.12256">
        <ele>81.116</ele>
        <time>2019-10-25T15:26:47.001Z</time>
      </trkpt>
      <trkpt lat="43.78944" lon="4.12246">
        <ele>88.76</ele>
        <time>2019-10-25T15:27:20.001Z</time>
      </trkpt>
      <trkpt lat="43.79004" lon="4.12277">
        <ele>91.01</ele>
        <time>2019-10-25T15:27:50.001Z</time>
      </trkpt>
      <trkpt lat="43.79068" lon="4.12256">
        <ele>91.38</ele>
        <time>2019-10-25T15:28:23.001Z</time>
      </trkpt>
      <trkpt lat="43.79159" lon="4.12236">
        <ele>86.092</ele>
        <time>2019-10-25T15:28:53.001Z</time>
      </trkpt>
      <trkpt lat="43.79269" lon="4.12242">
        <ele>86.427</ele>
        <time>2019-10-25T15:29:23.001Z</time>
      </trkpt>
      <trkpt lat="43.79359" lon="4.1228">
        <ele>86.142</ele>
        <time>2019-10-25T15:29:53.001Z</time>
      </trkpt>
      <trkpt lat="43.79426" lon="4.12331">
        <ele>91.87</ele>
        <time>2019-10-25T15:30:23.001Z</time>
      </trkpt>
      <trkpt lat="43.7949" lon="4.12373">
        <ele>94.91</ele>
        <time>2019-10-25T15:30:53.001Z</time>
      </trkpt>
      <trkpt lat="43.79584" lon="4.12382">
        <ele>99.041</ele>
        <time>2019-10-25T15:31:26.001Z</time>
      </trkpt>
      <trkpt lat="43.79697" lon="4.12396">
        <ele>95.996</ele>
        <time>2019-10-25T15:31:56.001Z</time>
      </trkpt>
      <trkpt lat="43.79813" lon="4.1242">
        <ele>99.758</ele>
        <time>2019-10-25T15:32:26.001Z</time>
      </trkpt>
      <trkpt lat="43.79927" lon="4.12449">
        <ele>96.339</ele>
        <time>2019-10-25T15:32:56.001Z</time>
      </trkpt>
      <trkpt lat="43.80046" lon="4.12495">
        <ele>94.912</ele>
        <time>2019-10-25T15:33:26.001Z</time>
      </trkpt>
      <trkpt lat="43.80142" lon="4.12541">
        <ele>96.54</ele>
        <time>2019-10-25T15:33:56.001Z</time>
      </trkpt>
      <trkpt lat="43.80302" lon="4.12532">
        <ele>95.051</ele>
        <time>2019-10-25T15:34:29.001Z</time>
      </trkpt>
      <trkpt lat="43.80414" lon="4.12508">
        <ele>92.262</ele>
        <time>2019-10-25T15:34:59.001Z</time>
      </trkpt>
      <trkpt lat="43.80506" lon="4.12542">
        <ele>93.647</ele>
        <time>2019-10-25T15:35:29.001Z</time>
      </trkpt>
      <trkpt lat="43.80646" lon="4.12489">
        <ele>92.719</ele>
        <time>2019-10-25T15:35:59.001Z</time>
      </trkpt>
      <trkpt lat="43.80777" lon="4.12455">
        <ele>92.205</ele>
        <time>2019-10-25T15:36:29.001Z</time>
      </trkpt>
      <trkpt lat="43.80886" lon="4.12434">
        <ele>95.222</ele>
        <time>2019-10-25T15:36:59.001Z</time>
      </trkpt>
      <trkpt lat="43.80988" lon="4.12429">
        <ele>99.112</ele>
        <time>2019-10-25T15:37:32.001Z</time>
      </trkpt>
      <trkpt lat="43.81081" lon="4.12388">
        <ele>98.959</ele>
        <time>2019-10-25T15:38:02Z</time>
      </trkpt>
      <trkpt lat="43.81175" lon="4.12344">
        <ele>101.767</ele>
        <time>2019-10-25T15:38:32.001Z</time>
      </trkpt>
      <trkpt lat="43.81224" lon="4.12336">
        <ele>103.821</ele>
        <time>2019-10-25T15:39:26.001Z</time>
      </trkpt>
      <trkpt lat="43.81317" lon="4.12265">
        <ele>105.681</ele>
        <time>2019-10-25T15:39:56.001Z</time>
      </trkpt>
      <trkpt lat="43.81432" lon="4.12221">
        <ele>96.603</ele>
        <time>2019-10-25T15:40:32.001Z</time>
      </trkpt>
      <trkpt lat="43.81533" lon="4.12342">
        <ele>91.859</ele>
        <time>2019-10-25T15:41:02Z</time>
      </trkpt>
      <trkpt lat="43.81574" lon="4.12419">
        <ele>88.356</ele>
        <time>2019-10-25T15:41:32.001Z</time>
      </trkpt>
      <trkpt lat="43.81596" lon="4.12443">
        <ele>94.084</ele>
        <time>2019-10-25T15:47:09.001Z</time>
      </trkpt>
      <trkpt lat="43.81599" lon="4.1246">
        <ele>93.691</ele>
        <time>2019-10-25T15:52:51.001Z</time>
      </trkpt>
      <trkpt lat="43.81596" lon="4.12468">
        <ele>92.545</ele>
        <time>2019-10-25T16:02:54.001Z</time>
      </trkpt>
      <trkpt lat="43.81595" lon="4.12467">
        <ele>86.994</ele>
        <time>2019-10-25T16:06:36.001Z</time>
      </trkpt>
      <trkpt lat="43.81598" lon="4.12467">
        <ele>86.994</ele>
        <time>2019-10-25T16:07:45.001Z</time>
      </trkpt>
      <trkpt lat="43.81598" lon="4.12467">
        <ele>86.994</ele>
        <time>2019-10-25T16:08:45.001Z</time>
      </trkpt>
      <trkpt lat="43.81598" lon="4.12467">
        <ele>86.994</ele>
        <time>2019-10-25T16:09:48.001Z</time>
      </trkpt>
      <trkpt lat="43.81598" lon="4.12467">
        <ele>86.994</ele>
        <time>2019-10-25T16:10:48.001Z</time>
      </trkpt>
      <trkpt lat="43.81593" lon="4.12466">
        <ele>90.945</ele>
        <time>2019-10-25T16:12:00Z</time>
      </trkpt>
      <trkpt lat="43.81594" lon="4.12466">
        <ele>91.739</ele>
        <time>2019-10-25T16:14:18.001Z</time>
      </trkpt>
      <trkpt lat="43.81592" lon="4.12472">
        <ele>90.223</ele>
        <time>2019-10-25T16:20:30.001Z</time>
      </trkpt>
      <trkpt lat="43.81587" lon="4.12465">
        <ele>93.848</ele>
        <time>2019-10-25T16:22:00Z</time>
      </trkpt>
    </trkseg>
  </trk>
</gpx>